UAE232 OMDB-WMKK
Flight info
| Callsign | UAE232 |
|---|---|
| Flight time | 6h 47m |
| Altitude | 35000 |
| Route | IVURO M677 LALDO B505 NADSO A777 VAXIM P307 PARAR N571 GURAS/N0492F370 N571 GUNIP Y347 KAKAK KAKAK1J |
| Aircraft | B77W/H-SDE1E2E3FGHIJ2J3J4J5M1RWXY/LB1D1 |
Departure
| Time | 2026-04-21 22:39 |
|---|---|
| Airport | Dubai International Airport (OMDB) |
Arrival
| Time | 2026-04-22 05:27 |
|---|---|
| Airport | Kuala Lumpur International Airport (WMKK) |
| Time | Latitude | Longitude | Altitude | Speed | Heading |
|---|---|---|---|---|---|
| 2026-04-21 22:20 | 25.24844 | 55.36373 | 45 ft | 0 kts | 211° |
| 2026-04-21 22:31 | 25.24856 | 55.36382 | 45 ft | 2 kts | 211° |
| 2026-04-21 22:31 | 25.24868 | 55.36390 | 45 ft | 2 kts | 211° |
| 2026-04-21 22:32 | 25.24881 | 55.36398 | 45 ft | 2 kts | 211° |
| 2026-04-21 22:32 | 25.24894 | 55.36407 | 45 ft | 2 kts | 211° |
| 2026-04-21 22:32 | 25.24907 | 55.36415 | 45 ft | 2 kts | 212° |
| 2026-04-21 22:32 | 25.24916 | 55.36427 | 45 ft | 2 kts | 263° |
| 2026-04-21 22:33 | 25.24915 | 55.36441 | 45 ft | 0 kts | 300° |
| 2026-04-21 22:33 | 25.24911 | 55.36446 | 45 ft | 0 kts | 302° |
| 2026-04-21 22:36 | 25.24912 | 55.36446 | 45 ft | 0 kts | 306° |
| 2026-04-21 22:36 | 25.24938 | 55.36424 | 45 ft | 9 kts | 324° |
| 2026-04-21 22:36 | 25.25024 | 55.36366 | 45 ft | 16 kts | 332° |
| 2026-04-21 22:37 | 25.25100 | 55.36333 | 45 ft | 10 kts | 0° |
| 2026-04-21 22:37 | 25.25164 | 55.36357 | 45 ft | 9 kts | 30° |
| 2026-04-21 22:37 | 25.25239 | 55.36414 | 45 ft | 13 kts | 43° |
| 2026-04-21 22:37 | 25.25255 | 55.36485 | 45 ft | 5 kts | 112° |
| 2026-04-21 22:38 | 25.25237 | 55.36517 | 45 ft | 4 kts | 122° |
| 2026-04-21 22:38 | 25.25221 | 55.36546 | 45 ft | 4 kts | 121° |
| 2026-04-21 22:38 | 25.25125 | 55.36721 | 45 ft | 60 kts | 121° |
| 2026-04-21 22:38 | 25.24778 | 55.37338 | 45 ft | 127 kts | 121° |
| 2026-04-21 22:39 | 25.24224 | 55.38353 | 92 ft | 176 kts | 118° |
| 2026-04-21 22:39 | 25.23548 | 55.39546 | 565 ft | 190 kts | 120° |
| 2026-04-21 22:39 | 25.22831 | 55.40771 | 1335 ft | 193 kts | 120° |
| 2026-04-21 22:39 | 25.22105 | 55.42081 | 1830 ft | 207 kts | 119° |
| 2026-04-21 22:40 | 25.21333 | 55.43502 | 2326 ft | 224 kts | 118° |
| 2026-04-21 22:40 | 25.20523 | 55.45016 | 2967 ft | 233 kts | 113° |
| 2026-04-21 22:40 | 25.20117 | 55.46724 | 3666 ft | 236 kts | 93° |
| 2026-04-21 22:40 | 25.20040 | 55.48547 | 4429 ft | 240 kts | 90° |
| 2026-04-21 22:41 | 25.19996 | 55.50390 | 5150 ft | 246 kts | 90° |
| 2026-04-21 22:41 | 25.19948 | 55.52282 | 5882 ft | 250 kts | 91° |
| 2026-04-21 22:41 | 25.19896 | 55.54197 | 6653 ft | 253 kts | 91° |
| 2026-04-21 22:41 | 25.19842 | 55.56171 | 7328 ft | 259 kts | 92° |
| 2026-04-21 22:42 | 25.19786 | 55.58154 | 8086 ft | 261 kts | 92° |
| 2026-04-21 22:42 | 25.19843 | 55.60158 | 8688 ft | 269 kts | 77° |
| 2026-04-21 22:42 | 25.20632 | 55.62082 | 9072 ft | 286 kts | 49° |
| 2026-04-21 22:42 | 25.22090 | 55.63662 | 9453 ft | 303 kts | 39° |
| 2026-04-21 22:43 | 25.23729 | 55.65159 | 10154 ft | 309 kts | 38° |
| 2026-04-21 22:43 | 25.25434 | 55.66726 | 10640 ft | 326 kts | 38° |
| 2026-04-21 22:43 | 25.27217 | 55.68388 | 11103 ft | 343 kts | 38° |
| 2026-04-21 22:43 | 25.29076 | 55.70134 | 11580 ft | 358 kts | 38° |
| 2026-04-21 22:44 | 25.31002 | 55.71944 | 12022 ft | 374 kts | 38° |
| 2026-04-21 22:44 | 25.32897 | 55.74033 | 12465 ft | 392 kts | 49° |
| 2026-04-21 22:44 | 25.34471 | 55.76546 | 12899 ft | 409 kts | 60° |
| 2026-04-21 22:44 | 25.35649 | 55.79468 | 13358 ft | 424 kts | 71° |
| 2026-04-21 22:45 | 25.36322 | 55.82688 | 13977 ft | 432 kts | 82° |
| 2026-04-21 22:45 | 25.36655 | 55.85978 | 14775 ft | 435 kts | 83° |
| 2026-04-21 22:45 | 25.36966 | 55.89302 | 15606 ft | 436 kts | 83° |
| 2026-04-21 22:45 | 25.37191 | 55.92641 | 16305 ft | 442 kts | 89° |
| 2026-04-21 22:46 | 25.36939 | 55.96048 | 16936 ft | 448 kts | 100° |
| 2026-04-21 22:46 | 25.36271 | 55.99426 | 17639 ft | 451 kts | 103° |
| 2026-04-21 22:46 | 25.35537 | 56.02791 | 18329 ft | 455 kts | 103° |
| 2026-04-21 22:46 | 25.34793 | 56.06196 | 18911 ft | 461 kts | 103° |
| 2026-04-21 22:47 | 25.34046 | 56.09630 | 19540 ft | 465 kts | 103° |
| 2026-04-21 22:47 | 25.33282 | 56.13149 | 20165 ft | 469 kts | 103° |
| 2026-04-21 22:47 | 25.32687 | 56.16708 | 20714 ft | 475 kts | 96° |
| 2026-04-21 22:47 | 25.32357 | 56.20352 | 21263 ft | 480 kts | 95° |
| 2026-04-21 22:48 | 25.32057 | 56.24000 | 21861 ft | 483 kts | 95° |
| 2026-04-21 22:48 | 25.31750 | 56.27732 | 22412 ft | 488 kts | 95° |
| 2026-04-21 22:48 | 25.31439 | 56.31478 | 22995 ft | 491 kts | 95° |
| 2026-04-21 22:48 | 25.31126 | 56.35240 | 23587 ft | 494 kts | 95° |
| 2026-04-21 22:49 | 25.30811 | 56.39010 | 24133 ft | 498 kts | 95° |
| 2026-04-21 22:49 | 25.30577 | 56.42812 | 24653 ft | 501 kts | 92° |
| 2026-04-21 22:49 | 25.30479 | 56.46661 | 25208 ft | 505 kts | 91° |
| 2026-04-21 22:49 | 25.30386 | 56.50551 | 25723 ft | 508 kts | 92° |
| 2026-04-21 22:50 | 25.30286 | 56.54476 | 26281 ft | 511 kts | 92° |
| 2026-04-21 22:50 | 25.29989 | 56.58406 | 26790 ft | 514 kts | 100° |
| 2026-04-21 22:50 | 25.29183 | 56.62215 | 27256 ft | 516 kts | 109° |
| 2026-04-21 22:50 | 25.27908 | 56.65959 | 27776 ft | 518 kts | 114° |
| 2026-04-21 22:51 | 25.26533 | 56.69616 | 28334 ft | 520 kts | 115° |
| 2026-04-21 22:51 | 25.25142 | 56.73288 | 28836 ft | 523 kts | 115° |
| 2026-04-21 22:51 | 25.23724 | 56.77025 | 29384 ft | 525 kts | 115° |
| 2026-04-21 22:51 | 25.22316 | 56.80734 | 30109 ft | 523 kts | 115° |
| 2026-04-21 22:52 | 25.20917 | 56.84416 | 30865 ft | 520 kts | 115° |
| 2026-04-21 22:52 | 25.19518 | 56.88096 | 31529 ft | 519 kts | 114° |
| 2026-04-21 22:52 | 25.18138 | 56.91723 | 32138 ft | 517 kts | 114° |
| 2026-04-21 22:52 | 25.16746 | 56.95377 | 32646 ft | 517 kts | 114° |
| 2026-04-21 22:53 | 25.15352 | 56.99032 | 33161 ft | 517 kts | 114° |
| 2026-04-21 22:53 | 25.13963 | 57.02674 | 33691 ft | 516 kts | 114° |
| 2026-04-21 22:53 | 25.12569 | 57.06325 | 34092 ft | 517 kts | 114° |
| 2026-04-21 22:53 | 25.11178 | 57.09965 | 34387 ft | 520 kts | 114° |
| 2026-04-21 22:54 | 25.09763 | 57.13663 | 34696 ft | 523 kts | 114° |
| 2026-04-21 22:54 | 25.08342 | 57.17374 | 34780 ft | 525 kts | 114° |
| 2026-04-21 22:54 | 25.05520 | 57.24737 | 34789 ft | 521 kts | 113° |
| 2026-04-21 22:55 | 25.02690 | 57.32107 | 34789 ft | 522 kts | 113° |
| 2026-04-21 22:55 | 24.99866 | 57.39447 | 34789 ft | 521 kts | 114° |
| 2026-04-21 22:56 | 24.97035 | 57.46796 | 34792 ft | 520 kts | 114° |
| 2026-04-21 22:56 | 24.94222 | 57.54082 | 34789 ft | 520 kts | 114° |
| 2026-04-21 22:57 | 24.91387 | 57.61414 | 34793 ft | 520 kts | 114° |
| 2026-04-21 22:57 | 24.88535 | 57.68777 | 34780 ft | 521 kts | 114° |
| 2026-04-21 22:58 | 24.85700 | 57.76084 | 34790 ft | 518 kts | 114° |
| 2026-04-21 22:58 | 24.82852 | 57.83405 | 34795 ft | 521 kts | 115° |
| 2026-04-21 22:59 | 24.79741 | 57.90582 | 34799 ft | 518 kts | 117° |
| 2026-04-21 22:59 | 24.76621 | 57.97669 | 34805 ft | 520 kts | 116° |
| 2026-04-21 23:00 | 24.73483 | 58.04813 | 34806 ft | 517 kts | 116° |
| 2026-04-21 23:00 | 24.70358 | 58.11931 | 34807 ft | 518 kts | 117° |
| 2026-04-21 23:01 | 24.67235 | 58.19042 | 34807 ft | 518 kts | 116° |
| 2026-04-21 23:01 | 24.64104 | 58.26165 | 34803 ft | 516 kts | 116° |
| 2026-04-21 23:02 | 24.60975 | 58.33274 | 34802 ft | 518 kts | 116° |
| 2026-04-21 23:02 | 24.57852 | 58.40360 | 34799 ft | 516 kts | 116° |
| 2026-04-21 23:03 | 24.54719 | 58.47459 | 34796 ft | 517 kts | 116° |
| 2026-04-21 23:03 | 24.51586 | 58.54548 | 34796 ft | 516 kts | 116° |
| 2026-04-21 23:04 | 24.48455 | 58.61620 | 34792 ft | 514 kts | 116° |
| 2026-04-21 23:04 | 24.45318 | 58.68694 | 34785 ft | 515 kts | 117° |
| 2026-04-21 23:05 | 24.42174 | 58.75776 | 34783 ft | 513 kts | 117° |
| 2026-04-21 23:05 | 24.39025 | 58.82863 | 34783 ft | 513 kts | 117° |
| 2026-04-21 23:06 | 24.35881 | 58.89930 | 34788 ft | 513 kts | 117° |
| 2026-04-21 23:06 | 24.32766 | 58.96919 | 34788 ft | 514 kts | 117° |
| 2026-04-21 23:07 | 24.29630 | 59.03948 | 34788 ft | 512 kts | 117° |
| 2026-04-21 23:07 | 24.26496 | 59.10959 | 34788 ft | 513 kts | 117° |
| 2026-04-21 23:08 | 24.23370 | 59.17942 | 34788 ft | 512 kts | 117° |
| 2026-04-21 23:08 | 24.20226 | 59.24956 | 34787 ft | 512 kts | 117° |
| 2026-04-21 23:09 | 24.17091 | 59.31938 | 34786 ft | 510 kts | 116° |
| 2026-04-21 23:09 | 24.13959 | 59.38903 | 34788 ft | 512 kts | 116° |
| 2026-04-21 23:10 | 24.10820 | 59.45874 | 34789 ft | 510 kts | 116° |
| 2026-04-21 23:10 | 24.07671 | 59.52856 | 34789 ft | 508 kts | 117° |
| 2026-04-21 23:11 | 24.04558 | 59.59749 | 34797 ft | 510 kts | 117° |
| 2026-04-21 23:11 | 24.01403 | 59.66724 | 34803 ft | 508 kts | 117° |
| 2026-04-21 23:12 | 23.98253 | 59.73677 | 34807 ft | 509 kts | 117° |
| 2026-04-21 23:12 | 23.95112 | 59.80602 | 34805 ft | 508 kts | 117° |
| 2026-04-21 23:13 | 23.91972 | 59.87512 | 34805 ft | 507 kts | 117° |
| 2026-04-21 23:13 | 23.88824 | 59.94432 | 34805 ft | 505 kts | 117° |
| 2026-04-21 23:14 | 23.85682 | 60.01327 | 34805 ft | 507 kts | 117° |
| 2026-04-21 23:14 | 23.82512 | 60.08273 | 34803 ft | 507 kts | 117° |
| 2026-04-21 23:15 | 23.79360 | 60.15171 | 34802 ft | 506 kts | 117° |
| 2026-04-21 23:15 | 23.76216 | 60.22041 | 34802 ft | 505 kts | 117° |
| 2026-04-21 23:16 | 23.73085 | 60.28871 | 34799 ft | 507 kts | 117° |
| 2026-04-21 23:16 | 23.69934 | 60.35737 | 34797 ft | 505 kts | 117° |
| 2026-04-21 23:17 | 23.66796 | 60.42563 | 34795 ft | 504 kts | 117° |
| 2026-04-21 23:17 | 23.63649 | 60.49400 | 34799 ft | 505 kts | 117° |
| 2026-04-21 23:18 | 23.60499 | 60.56234 | 34794 ft | 505 kts | 117° |
| 2026-04-21 23:18 | 23.57329 | 60.63102 | 34796 ft | 505 kts | 117° |
| 2026-04-21 23:19 | 23.54173 | 60.69927 | 34792 ft | 503 kts | 117° |
| 2026-04-21 23:19 | 23.51018 | 60.76743 | 34796 ft | 504 kts | 117° |
| 2026-04-21 23:20 | 23.47873 | 60.83527 | 34792 ft | 503 kts | 117° |
| 2026-04-21 23:20 | 23.44725 | 60.90307 | 34795 ft | 503 kts | 117° |
| 2026-04-21 23:21 | 23.41574 | 60.97085 | 34799 ft | 502 kts | 117° |
| 2026-04-21 23:21 | 23.38430 | 61.03838 | 34803 ft | 501 kts | 117° |
| 2026-04-21 23:22 | 23.35267 | 61.10623 | 34815 ft | 502 kts | 117° |
| 2026-04-21 23:22 | 23.32107 | 61.17392 | 34818 ft | 502 kts | 117° |
| 2026-04-21 23:23 | 23.29033 | 61.24198 | 34823 ft | 504 kts | 116° |
| 2026-04-21 23:23 | 23.25993 | 61.31068 | 34824 ft | 503 kts | 116° |
| 2026-04-21 23:24 | 23.22953 | 61.37913 | 34821 ft | 503 kts | 116° |
| 2026-04-21 23:24 | 23.19905 | 61.44760 | 34814 ft | 503 kts | 116° |
| 2026-04-21 23:25 | 23.16862 | 61.51580 | 34821 ft | 504 kts | 116° |
| 2026-04-21 23:25 | 23.13802 | 61.58428 | 34821 ft | 503 kts | 116° |
| 2026-04-21 23:26 | 23.10751 | 61.65243 | 34822 ft | 505 kts | 116° |
| 2026-04-21 23:26 | 23.07669 | 61.72120 | 34819 ft | 502 kts | 116° |
| 2026-04-21 23:27 | 23.04601 | 61.78954 | 34820 ft | 505 kts | 116° |
| 2026-04-21 23:27 | 23.01517 | 61.85813 | 34824 ft | 504 kts | 116° |
| 2026-04-21 23:28 | 22.98427 | 61.92677 | 34826 ft | 505 kts | 116° |
| 2026-04-21 23:28 | 22.95354 | 61.99494 | 34830 ft | 506 kts | 116° |
| 2026-04-21 23:29 | 22.92259 | 62.06352 | 34829 ft | 505 kts | 116° |
| 2026-04-21 23:29 | 22.89166 | 62.13191 | 34828 ft | 506 kts | 116° |
| 2026-04-21 23:30 | 22.86052 | 62.20070 | 34827 ft | 505 kts | 116° |
| 2026-04-21 23:30 | 22.82965 | 62.26879 | 34821 ft | 504 kts | 116° |
| 2026-04-21 23:31 | 22.79864 | 62.33710 | 34821 ft | 505 kts | 116° |
| 2026-04-21 23:31 | 22.76777 | 62.40500 | 34812 ft | 504 kts | 116° |
| 2026-04-21 23:32 | 22.73651 | 62.47366 | 34816 ft | 505 kts | 116° |
| 2026-04-21 23:32 | 22.70552 | 62.54164 | 34818 ft | 504 kts | 116° |
| 2026-04-21 23:33 | 22.67463 | 62.60931 | 34820 ft | 504 kts | 116° |
| 2026-04-21 23:33 | 22.64348 | 62.67746 | 34816 ft | 504 kts | 117° |
| 2026-04-21 23:34 | 22.61226 | 62.74567 | 34827 ft | 504 kts | 117° |
| 2026-04-21 23:34 | 22.58075 | 62.81439 | 34834 ft | 505 kts | 117° |
| 2026-04-21 23:35 | 22.54968 | 62.88209 | 34840 ft | 502 kts | 117° |
| 2026-04-21 23:35 | 22.51853 | 62.94984 | 34839 ft | 503 kts | 117° |
| 2026-04-21 23:36 | 22.48735 | 63.01757 | 34839 ft | 502 kts | 116° |
| 2026-04-21 23:36 | 22.45623 | 63.08510 | 34839 ft | 502 kts | 117° |
| 2026-04-21 23:37 | 22.42529 | 63.15288 | 34841 ft | 502 kts | 116° |
| 2026-04-21 23:37 | 22.39506 | 63.22070 | 34842 ft | 504 kts | 116° |
| 2026-04-21 23:38 | 22.36449 | 63.28915 | 34838 ft | 505 kts | 116° |
| 2026-04-21 23:38 | 22.33397 | 63.35733 | 34841 ft | 504 kts | 116° |
| 2026-04-21 23:39 | 22.30357 | 63.42513 | 34844 ft | 504 kts | 116° |
| 2026-04-21 23:39 | 22.27309 | 63.49297 | 34845 ft | 503 kts | 116° |
| 2026-04-21 23:40 | 22.24229 | 63.56143 | 34843 ft | 505 kts | 116° |
| 2026-04-21 23:40 | 22.21163 | 63.62949 | 34839 ft | 505 kts | 116° |
| 2026-04-21 23:41 | 22.18090 | 63.69759 | 34833 ft | 505 kts | 116° |
| 2026-04-21 23:41 | 22.14994 | 63.76612 | 34829 ft | 507 kts | 116° |
| 2026-04-21 23:42 | 22.11920 | 63.83408 | 34828 ft | 506 kts | 116° |
| 2026-04-21 23:42 | 22.08826 | 63.90237 | 34827 ft | 505 kts | 116° |
| 2026-04-21 23:43 | 22.05736 | 63.97048 | 34827 ft | 506 kts | 116° |
| 2026-04-21 23:43 | 22.02639 | 64.03867 | 34826 ft | 505 kts | 116° |
| 2026-04-21 23:44 | 21.99545 | 64.10668 | 34833 ft | 506 kts | 116° |
| 2026-04-21 23:44 | 21.96456 | 64.17451 | 34833 ft | 507 kts | 116° |
| 2026-04-21 23:45 | 21.91777 | 64.27706 | 34834 ft | 508 kts | 116° |
| 2026-04-21 23:46 | 21.88654 | 64.34540 | 34838 ft | 508 kts | 116° |
| 2026-04-21 23:46 | 21.85527 | 64.41372 | 34851 ft | 507 kts | 116° |
| 2026-04-21 23:47 | 21.82408 | 64.48180 | 34854 ft | 507 kts | 116° |
| 2026-04-21 23:47 | 21.79293 | 64.54969 | 34854 ft | 507 kts | 116° |
| 2026-04-21 23:48 | 21.76166 | 64.61774 | 34859 ft | 507 kts | 116° |
| 2026-04-21 23:48 | 21.73018 | 64.68617 | 34852 ft | 505 kts | 117° |
| 2026-04-21 23:49 | 21.69901 | 64.75382 | 34854 ft | 508 kts | 117° |
| 2026-04-21 23:49 | 21.66756 | 64.82201 | 34851 ft | 508 kts | 117° |
| 2026-04-21 23:50 | 21.63638 | 64.88952 | 34851 ft | 509 kts | 117° |
| 2026-04-21 23:50 | 21.60481 | 64.95777 | 34847 ft | 507 kts | 117° |
| 2026-04-21 23:51 | 21.57348 | 65.02542 | 34851 ft | 507 kts | 117° |
| 2026-04-21 23:51 | 21.54212 | 65.09306 | 34848 ft | 506 kts | 117° |
| 2026-04-21 23:52 | 21.51072 | 65.16069 | 34849 ft | 508 kts | 116° |
| 2026-04-21 23:52 | 21.47920 | 65.22849 | 34848 ft | 506 kts | 116° |
| 2026-04-21 23:53 | 21.44778 | 65.29598 | 34847 ft | 506 kts | 116° |
| 2026-04-21 23:53 | 21.41626 | 65.36359 | 34849 ft | 506 kts | 116° |
| 2026-04-21 23:54 | 21.38484 | 65.43093 | 34850 ft | 504 kts | 116° |
| 2026-04-21 23:54 | 21.35331 | 65.49838 | 34848 ft | 507 kts | 116° |
| 2026-04-21 23:55 | 21.32173 | 65.56589 | 34849 ft | 504 kts | 116° |
| 2026-04-21 23:55 | 21.29026 | 65.63305 | 34850 ft | 505 kts | 116° |
| 2026-04-21 23:56 | 21.25877 | 65.70017 | 34844 ft | 505 kts | 116° |
| 2026-04-21 23:56 | 21.22722 | 65.76733 | 34846 ft | 504 kts | 116° |
| 2026-04-21 23:57 | 21.19564 | 65.83449 | 34850 ft | 503 kts | 116° |
| 2026-04-21 23:57 | 21.16387 | 65.90196 | 34846 ft | 503 kts | 116° |
| 2026-04-21 23:58 | 21.13242 | 65.96866 | 34849 ft | 503 kts | 116° |
| 2026-04-21 23:58 | 21.10136 | 66.03529 | 34848 ft | 501 kts | 115° |
| 2026-04-21 23:59 | 21.07090 | 66.10262 | 34848 ft | 501 kts | 115° |
| 2026-04-21 23:59 | 21.04053 | 66.16958 | 34852 ft | 501 kts | 115° |
| 2026-04-22 00:00 | 21.01003 | 66.23667 | 34855 ft | 501 kts | 115° |
| 2026-04-22 00:00 | 20.97936 | 66.30402 | 34866 ft | 501 kts | 115° |
| 2026-04-22 00:01 | 20.94883 | 66.37095 | 34868 ft | 500 kts | 115° |
| 2026-04-22 00:01 | 20.91837 | 66.43764 | 34871 ft | 500 kts | 115° |
| 2026-04-22 00:02 | 20.88780 | 66.50446 | 34867 ft | 500 kts | 115° |
| 2026-04-22 00:02 | 20.85706 | 66.57159 | 34869 ft | 498 kts | 115° |
| 2026-04-22 00:03 | 20.82640 | 66.63845 | 34868 ft | 498 kts | 115° |
| 2026-04-22 00:03 | 20.79590 | 66.70486 | 34867 ft | 498 kts | 115° |
| 2026-04-22 00:04 | 20.76535 | 66.77132 | 34866 ft | 498 kts | 115° |
| 2026-04-22 00:04 | 20.73479 | 66.83769 | 34867 ft | 496 kts | 115° |
| 2026-04-22 00:05 | 20.70437 | 66.90369 | 34867 ft | 496 kts | 115° |
| 2026-04-22 00:05 | 20.67394 | 66.96964 | 34867 ft | 495 kts | 115° |
| 2026-04-22 00:06 | 20.64345 | 67.03564 | 34865 ft | 495 kts | 115° |
| 2026-04-22 00:06 | 20.61306 | 67.10132 | 34872 ft | 494 kts | 115° |
| 2026-04-22 00:07 | 20.58259 | 67.16710 | 34866 ft | 494 kts | 115° |
| 2026-04-22 00:07 | 20.55221 | 67.23264 | 34855 ft | 493 kts | 115° |
| 2026-04-22 00:08 | 20.52191 | 67.29790 | 34852 ft | 494 kts | 115° |
| 2026-04-22 00:08 | 20.49130 | 67.36375 | 34864 ft | 494 kts | 115° |
| 2026-04-22 00:09 | 20.46096 | 67.42894 | 34864 ft | 493 kts | 115° |
| 2026-04-22 00:09 | 20.43046 | 67.49439 | 34864 ft | 492 kts | 115° |
| 2026-04-22 00:10 | 20.40007 | 67.55952 | 34868 ft | 490 kts | 114° |
| 2026-04-22 00:10 | 20.36977 | 67.62440 | 34867 ft | 491 kts | 115° |
| 2026-04-22 00:11 | 20.33923 | 67.68971 | 34872 ft | 490 kts | 115° |
| 2026-04-22 00:11 | 20.30863 | 67.75508 | 34870 ft | 492 kts | 115° |
| 2026-04-22 00:12 | 20.27829 | 67.81980 | 34871 ft | 489 kts | 115° |
| 2026-04-22 00:12 | 20.24794 | 67.88446 | 34865 ft | 488 kts | 115° |
| 2026-04-22 00:13 | 20.21747 | 67.94933 | 34869 ft | 487 kts | 115° |
| 2026-04-22 00:13 | 20.18723 | 68.01361 | 34871 ft | 488 kts | 115° |
| 2026-04-22 00:14 | 20.15680 | 68.07823 | 34869 ft | 487 kts | 115° |
| 2026-04-22 00:14 | 20.12645 | 68.14261 | 34868 ft | 488 kts | 115° |
| 2026-04-22 00:15 | 20.09599 | 68.20712 | 34868 ft | 486 kts | 115° |
| 2026-04-22 00:15 | 20.06576 | 68.27110 | 34870 ft | 487 kts | 115° |
| 2026-04-22 00:16 | 20.03526 | 68.33556 | 34870 ft | 484 kts | 115° |
| 2026-04-22 00:16 | 20.00502 | 68.39941 | 34869 ft | 485 kts | 115° |
| 2026-04-22 00:17 | 19.97474 | 68.46327 | 34867 ft | 485 kts | 115° |
| 2026-04-22 00:17 | 19.94429 | 68.52741 | 34862 ft | 485 kts | 114° |
| 2026-04-22 00:18 | 19.91387 | 68.59141 | 34860 ft | 486 kts | 115° |
| 2026-04-22 00:18 | 19.88342 | 68.65541 | 34852 ft | 486 kts | 115° |
| 2026-04-22 00:19 | 19.85275 | 68.71979 | 34850 ft | 485 kts | 115° |
| 2026-04-22 00:19 | 19.82223 | 68.78379 | 34848 ft | 485 kts | 115° |
| 2026-04-22 00:20 | 19.79167 | 68.84779 | 34846 ft | 485 kts | 115° |
| 2026-04-22 00:20 | 19.76119 | 68.91157 | 34847 ft | 485 kts | 115° |
| 2026-04-22 00:21 | 19.73063 | 68.97543 | 34850 ft | 485 kts | 115° |
| 2026-04-22 00:21 | 19.70018 | 69.03899 | 34856 ft | 484 kts | 115° |
| 2026-04-22 00:22 | 19.66957 | 69.10281 | 34857 ft | 484 kts | 115° |
| 2026-04-22 00:22 | 19.63925 | 69.16596 | 34856 ft | 483 kts | 115° |
| 2026-04-22 00:23 | 19.60876 | 69.22938 | 34856 ft | 483 kts | 115° |
| 2026-04-22 00:23 | 19.57827 | 69.29275 | 34853 ft | 483 kts | 115° |
| 2026-04-22 00:24 | 19.54778 | 69.35608 | 34851 ft | 482 kts | 114° |
| 2026-04-22 00:24 | 19.51842 | 69.42005 | 34849 ft | 482 kts | 113° |
| 2026-04-22 00:25 | 19.48940 | 69.48365 | 34849 ft | 481 kts | 114° |
| 2026-04-22 00:25 | 19.46014 | 69.54758 | 34850 ft | 481 kts | 114° |
| 2026-04-22 00:26 | 19.43098 | 69.61118 | 34849 ft | 481 kts | 114° |
| 2026-04-22 00:26 | 19.40154 | 69.67527 | 34849 ft | 482 kts | 114° |
| 2026-04-22 00:27 | 19.37232 | 69.73880 | 34849 ft | 480 kts | 114° |
| 2026-04-22 00:27 | 19.34297 | 69.80254 | 34850 ft | 481 kts | 114° |
| 2026-04-22 00:28 | 19.31370 | 69.86601 | 34852 ft | 481 kts | 114° |
| 2026-04-22 00:28 | 19.28422 | 69.92986 | 34850 ft | 480 kts | 114° |
| 2026-04-22 00:29 | 19.25492 | 69.99328 | 34847 ft | 480 kts | 114° |
| 2026-04-22 00:29 | 19.22567 | 70.05651 | 34847 ft | 480 kts | 114° |
| 2026-04-22 00:30 | 19.19637 | 70.11976 | 34849 ft | 480 kts | 114° |
| 2026-04-22 00:30 | 19.16692 | 70.18328 | 34846 ft | 480 kts | 114° |
| 2026-04-22 00:31 | 19.13748 | 70.24670 | 34849 ft | 480 kts | 114° |
| 2026-04-22 00:31 | 19.10818 | 70.30975 | 34848 ft | 480 kts | 115° |
| 2026-04-22 00:32 | 19.07869 | 70.37315 | 34851 ft | 480 kts | 115° |
| 2026-04-22 00:32 | 19.04920 | 70.43648 | 34856 ft | 480 kts | 115° |
| 2026-04-22 00:33 | 19.01983 | 70.49947 | 34859 ft | 480 kts | 115° |
| 2026-04-22 00:33 | 18.99030 | 70.56274 | 34862 ft | 479 kts | 115° |
| 2026-04-22 00:34 | 18.96072 | 70.62607 | 34863 ft | 483 kts | 116° |
| 2026-04-22 00:34 | 18.93104 | 70.68951 | 34865 ft | 481 kts | 116° |
| 2026-04-22 00:35 | 18.90140 | 70.75281 | 34866 ft | 481 kts | 116° |
| 2026-04-22 00:35 | 18.87158 | 70.81644 | 34867 ft | 481 kts | 116° |
| 2026-04-22 00:36 | 18.84183 | 70.87985 | 34868 ft | 481 kts | 117° |
| 2026-04-22 00:36 | 18.81214 | 70.94304 | 34867 ft | 482 kts | 117° |
| 2026-04-22 00:37 | 18.78232 | 71.00645 | 34867 ft | 482 kts | 117° |
| 2026-04-22 00:37 | 18.75240 | 71.07001 | 34864 ft | 483 kts | 117° |
| 2026-04-22 00:38 | 18.72262 | 71.13319 | 34861 ft | 482 kts | 117° |
| 2026-04-22 00:38 | 18.69265 | 71.19673 | 34850 ft | 483 kts | 118° |
| 2026-04-22 00:39 | 18.66286 | 71.25983 | 34841 ft | 482 kts | 118° |
| 2026-04-22 00:39 | 18.63273 | 71.32354 | 34847 ft | 487 kts | 118° |
| 2026-04-22 00:40 | 18.60253 | 71.38734 | 34849 ft | 491 kts | 118° |
| 2026-04-22 00:40 | 18.57216 | 71.45145 | 34844 ft | 489 kts | 119° |
| 2026-04-22 00:41 | 18.54165 | 71.51578 | 34842 ft | 488 kts | 119° |
| 2026-04-22 00:41 | 18.51136 | 71.57958 | 34848 ft | 490 kts | 119° |
| 2026-04-22 00:42 | 18.48087 | 71.64374 | 34844 ft | 489 kts | 119° |
| 2026-04-22 00:42 | 18.45019 | 71.70821 | 34843 ft | 491 kts | 120° |
| 2026-04-22 00:43 | 18.41959 | 71.77245 | 34846 ft | 493 kts | 120° |
| 2026-04-22 00:43 | 18.38874 | 71.83714 | 34851 ft | 495 kts | 120° |
| 2026-04-22 00:44 | 18.35786 | 71.90186 | 34857 ft | 493 kts | 120° |
| 2026-04-22 00:44 | 18.32713 | 71.96616 | 34860 ft | 493 kts | 120° |
| 2026-04-22 00:45 | 18.29623 | 72.03075 | 34855 ft | 493 kts | 120° |
| 2026-04-22 00:45 | 18.26545 | 72.09504 | 34859 ft | 494 kts | 121° |
| 2026-04-22 00:46 | 18.23451 | 72.15958 | 34862 ft | 495 kts | 121° |
| 2026-04-22 00:46 | 18.20356 | 72.22407 | 34855 ft | 495 kts | 121° |
| 2026-04-22 00:47 | 18.17260 | 72.28854 | 34858 ft | 495 kts | 121° |
| 2026-04-22 00:47 | 18.14160 | 72.35300 | 34858 ft | 496 kts | 121° |
| 2026-04-22 00:48 | 18.11043 | 72.41775 | 34860 ft | 496 kts | 122° |
| 2026-04-22 00:48 | 18.07908 | 72.48280 | 34861 ft | 496 kts | 122° |
| 2026-04-22 00:49 | 18.04789 | 72.54747 | 34864 ft | 497 kts | 122° |
| 2026-04-22 00:49 | 18.01677 | 72.61192 | 34866 ft | 497 kts | 122° |
| 2026-04-22 00:50 | 17.98540 | 72.67681 | 34855 ft | 496 kts | 123° |
| 2026-04-22 00:50 | 17.95408 | 72.74155 | 34857 ft | 496 kts | 123° |
| 2026-04-22 00:51 | 17.92301 | 72.80571 | 34856 ft | 494 kts | 123° |
| 2026-04-22 00:51 | 17.89164 | 72.87038 | 34867 ft | 496 kts | 123° |
| 2026-04-22 00:52 | 17.86024 | 72.93506 | 34863 ft | 497 kts | 123° |
| 2026-04-22 00:52 | 17.82889 | 72.99960 | 34860 ft | 496 kts | 123° |
| 2026-04-22 00:53 | 17.79743 | 73.06426 | 34862 ft | 499 kts | 123° |
| 2026-04-22 00:53 | 17.76609 | 73.12863 | 34857 ft | 497 kts | 123° |
| 2026-04-22 00:54 | 17.73455 | 73.19334 | 34873 ft | 500 kts | 123° |
| 2026-04-22 00:54 | 17.70285 | 73.25832 | 34875 ft | 497 kts | 123° |
| 2026-04-22 00:55 | 17.67145 | 73.32258 | 34882 ft | 496 kts | 124° |
| 2026-04-22 00:55 | 17.62429 | 73.41894 | 34882 ft | 496 kts | 124° |
| 2026-04-22 00:56 | 17.59276 | 73.48328 | 34890 ft | 496 kts | 124° |
| 2026-04-22 00:56 | 17.56136 | 73.54733 | 34889 ft | 494 kts | 124° |
| 2026-04-22 00:57 | 17.52981 | 73.61156 | 34935 ft | 498 kts | 124° |
| 2026-04-22 00:57 | 17.49823 | 73.67585 | 34950 ft | 496 kts | 124° |
| 2026-04-22 00:58 | 17.46671 | 73.73993 | 35005 ft | 497 kts | 124° |
| 2026-04-22 00:58 | 17.43508 | 73.80418 | 35017 ft | 495 kts | 124° |
| 2026-04-22 00:59 | 17.40343 | 73.86837 | 35015 ft | 496 kts | 125° |
| 2026-04-22 00:59 | 17.37187 | 73.93237 | 35008 ft | 494 kts | 125° |
| 2026-04-22 01:00 | 17.34029 | 73.99630 | 34990 ft | 493 kts | 125° |
| 2026-04-22 01:00 | 17.30882 | 74.05994 | 34980 ft | 496 kts | 125° |
| 2026-04-22 01:01 | 17.27723 | 74.12380 | 34989 ft | 494 kts | 125° |
| 2026-04-22 01:01 | 17.24564 | 74.18760 | 34988 ft | 492 kts | 125° |
| 2026-04-22 01:02 | 17.21415 | 74.25107 | 34986 ft | 495 kts | 125° |
| 2026-04-22 01:02 | 17.18257 | 74.31479 | 34987 ft | 492 kts | 125° |
| 2026-04-22 01:03 | 17.15120 | 74.37798 | 34990 ft | 494 kts | 125° |
| 2026-04-22 01:03 | 17.11952 | 74.44177 | 34984 ft | 491 kts | 125° |
| 2026-04-22 01:04 | 17.08800 | 74.50514 | 34984 ft | 495 kts | 125° |
| 2026-04-22 01:04 | 17.05646 | 74.56855 | 34985 ft | 491 kts | 125° |
| 2026-04-22 01:05 | 17.02480 | 74.63210 | 34985 ft | 492 kts | 126° |
| 2026-04-22 01:05 | 16.99307 | 74.69576 | 34985 ft | 491 kts | 126° |
| 2026-04-22 01:06 | 16.96140 | 74.75917 | 34990 ft | 493 kts | 126° |
| 2026-04-22 01:06 | 16.92991 | 74.82223 | 34984 ft | 491 kts | 126° |
| 2026-04-22 01:07 | 16.89824 | 74.88556 | 34980 ft | 491 kts | 126° |
| 2026-04-22 01:07 | 16.86655 | 74.94885 | 34985 ft | 491 kts | 126° |
| 2026-04-22 01:08 | 16.83481 | 75.01222 | 34978 ft | 490 kts | 126° |
| 2026-04-22 01:08 | 16.80337 | 75.07494 | 34978 ft | 488 kts | 126° |
| 2026-04-22 01:09 | 16.77180 | 75.13777 | 34980 ft | 492 kts | 126° |
| 2026-04-22 01:09 | 16.74004 | 75.20101 | 34980 ft | 490 kts | 126° |
| 2026-04-22 01:10 | 16.70852 | 75.26369 | 34981 ft | 491 kts | 126° |
| 2026-04-22 01:10 | 16.67676 | 75.32680 | 34976 ft | 490 kts | 126° |
| 2026-04-22 01:11 | 16.64498 | 75.38985 | 34980 ft | 492 kts | 126° |
| 2026-04-22 01:11 | 16.61332 | 75.45267 | 34983 ft | 490 kts | 126° |
| 2026-04-22 01:12 | 16.58279 | 75.51633 | 34982 ft | 493 kts | 123° |
| 2026-04-22 01:12 | 16.55328 | 75.58064 | 34974 ft | 495 kts | 123° |
| 2026-04-22 01:13 | 16.52372 | 75.64484 | 34978 ft | 490 kts | 124° |
| 2026-04-22 01:13 | 16.49400 | 75.70911 | 34967 ft | 493 kts | 124° |
| 2026-04-22 01:14 | 16.46420 | 75.77344 | 34971 ft | 492 kts | 124° |
| 2026-04-22 01:14 | 16.43418 | 75.83813 | 34968 ft | 491 kts | 124° |
| 2026-04-22 01:15 | 16.40437 | 75.90230 | 34960 ft | 493 kts | 124° |
| 2026-04-22 01:15 | 16.37454 | 75.96646 | 34949 ft | 490 kts | 124° |
| 2026-04-22 01:16 | 16.34468 | 76.03037 | 34946 ft | 492 kts | 124° |
| 2026-04-22 01:16 | 16.31472 | 76.09396 | 34950 ft | 489 kts | 124° |
| 2026-04-22 01:17 | 16.28451 | 76.15795 | 34947 ft | 493 kts | 124° |
| 2026-04-22 01:17 | 16.25450 | 76.22156 | 34952 ft | 492 kts | 124° |
| 2026-04-22 01:18 | 16.22434 | 76.28541 | 34951 ft | 490 kts | 124° |
| 2026-04-22 01:18 | 16.19425 | 76.34903 | 34944 ft | 490 kts | 124° |
| 2026-04-22 01:19 | 16.16386 | 76.41321 | 34946 ft | 492 kts | 124° |
| 2026-04-22 01:19 | 16.13391 | 76.47646 | 34945 ft | 492 kts | 124° |
| 2026-04-22 01:20 | 16.10352 | 76.54056 | 34942 ft | 490 kts | 124° |
| 2026-04-22 01:20 | 16.07333 | 76.60416 | 34941 ft | 492 kts | 124° |
| 2026-04-22 01:21 | 16.04297 | 76.66808 | 34928 ft | 491 kts | 124° |
| 2026-04-22 01:21 | 16.01281 | 76.73152 | 34924 ft | 491 kts | 124° |
| 2026-04-22 01:22 | 15.98245 | 76.79531 | 34919 ft | 491 kts | 124° |
| 2026-04-22 01:22 | 15.95202 | 76.85921 | 34914 ft | 489 kts | 124° |
| 2026-04-22 01:23 | 15.92165 | 76.92289 | 34911 ft | 493 kts | 124° |
| 2026-04-22 01:23 | 15.89144 | 76.98621 | 34925 ft | 491 kts | 124° |
| 2026-04-22 01:24 | 15.86096 | 77.05003 | 34924 ft | 490 kts | 124° |
| 2026-04-22 01:24 | 15.83043 | 77.11386 | 34926 ft | 493 kts | 124° |
| 2026-04-22 01:25 | 15.80006 | 77.17735 | 34926 ft | 489 kts | 124° |
| 2026-04-22 01:25 | 15.76954 | 77.24105 | 34928 ft | 493 kts | 124° |
| 2026-04-22 01:26 | 15.73928 | 77.30418 | 34929 ft | 493 kts | 124° |
| 2026-04-22 01:26 | 15.70876 | 77.36788 | 34928 ft | 491 kts | 123° |
| 2026-04-22 01:27 | 15.67836 | 77.43178 | 34927 ft | 493 kts | 123° |
| 2026-04-22 01:27 | 15.64810 | 77.49535 | 34927 ft | 492 kts | 123° |
| 2026-04-22 01:28 | 15.61785 | 77.55882 | 34927 ft | 492 kts | 123° |
| 2026-04-22 01:28 | 15.58746 | 77.62251 | 34931 ft | 493 kts | 123° |
| 2026-04-22 01:29 | 15.55689 | 77.68655 | 34922 ft | 493 kts | 123° |
| 2026-04-22 01:29 | 15.52654 | 77.75006 | 34921 ft | 491 kts | 123° |
| 2026-04-22 01:30 | 15.49610 | 77.81368 | 34920 ft | 491 kts | 123° |
| 2026-04-22 01:30 | 15.46570 | 77.87714 | 34922 ft | 492 kts | 123° |
| 2026-04-22 01:31 | 15.43543 | 77.94031 | 34922 ft | 492 kts | 123° |
| 2026-04-22 01:31 | 15.40489 | 78.00396 | 34922 ft | 493 kts | 123° |
| 2026-04-22 01:32 | 15.37442 | 78.06745 | 34916 ft | 492 kts | 123° |
| 2026-04-22 01:32 | 15.34379 | 78.13088 | 34910 ft | 492 kts | 123° |
| 2026-04-22 01:33 | 15.31281 | 78.19424 | 34900 ft | 492 kts | 123° |
| 2026-04-22 01:33 | 15.28195 | 78.25732 | 34892 ft | 493 kts | 123° |
| 2026-04-22 01:34 | 15.25098 | 78.32062 | 34891 ft | 494 kts | 123° |
| 2026-04-22 01:34 | 15.21994 | 78.38401 | 34887 ft | 492 kts | 123° |
| 2026-04-22 01:35 | 15.18890 | 78.44734 | 34883 ft | 493 kts | 123° |
| 2026-04-22 01:35 | 15.15796 | 78.51045 | 34882 ft | 490 kts | 123° |
| 2026-04-22 01:36 | 15.12720 | 78.57309 | 34894 ft | 491 kts | 123° |
| 2026-04-22 01:36 | 15.09619 | 78.63622 | 34910 ft | 493 kts | 123° |
| 2026-04-22 01:37 | 15.06491 | 78.69982 | 34914 ft | 494 kts | 123° |
| 2026-04-22 01:37 | 15.03365 | 78.76336 | 34919 ft | 492 kts | 123° |
| 2026-04-22 01:38 | 15.00256 | 78.82647 | 34903 ft | 494 kts | 123° |
| 2026-04-22 01:38 | 14.97124 | 78.89002 | 34887 ft | 493 kts | 123° |
| 2026-04-22 01:39 | 14.94007 | 78.95320 | 34878 ft | 493 kts | 123° |
| 2026-04-22 01:39 | 14.90900 | 79.01612 | 34870 ft | 492 kts | 123° |
| 2026-04-22 01:40 | 14.87765 | 79.07955 | 34885 ft | 493 kts | 123° |
| 2026-04-22 01:40 | 14.84646 | 79.14262 | 34883 ft | 492 kts | 123° |
| 2026-04-22 01:41 | 14.81529 | 79.20559 | 34883 ft | 491 kts | 123° |
| 2026-04-22 01:41 | 14.78422 | 79.26830 | 34885 ft | 490 kts | 123° |
| 2026-04-22 01:42 | 14.75306 | 79.33113 | 34883 ft | 491 kts | 123° |
| 2026-04-22 01:42 | 14.72193 | 79.39387 | 34877 ft | 491 kts | 123° |
| 2026-04-22 01:43 | 14.69071 | 79.45671 | 34876 ft | 491 kts | 123° |
| 2026-04-22 01:43 | 14.65945 | 79.51959 | 34871 ft | 491 kts | 123° |
| 2026-04-22 01:44 | 14.62842 | 79.58196 | 34871 ft | 492 kts | 123° |
| 2026-04-22 01:44 | 14.59712 | 79.64484 | 34868 ft | 491 kts | 123° |
| 2026-04-22 01:45 | 14.56573 | 79.70782 | 34857 ft | 491 kts | 123° |
| 2026-04-22 01:45 | 14.53433 | 79.77078 | 34860 ft | 490 kts | 123° |
| 2026-04-22 01:46 | 14.50297 | 79.83361 | 34857 ft | 491 kts | 123° |
| 2026-04-22 01:46 | 14.47182 | 79.89597 | 34854 ft | 490 kts | 123° |
| 2026-04-22 01:47 | 14.44056 | 79.95850 | 34852 ft | 491 kts | 123° |
| 2026-04-22 01:47 | 14.40914 | 80.02128 | 34852 ft | 491 kts | 123° |
| 2026-04-22 01:48 | 14.37779 | 80.08388 | 34848 ft | 491 kts | 123° |
| 2026-04-22 01:48 | 14.34640 | 80.14651 | 34850 ft | 491 kts | 123° |
| 2026-04-22 01:49 | 14.31516 | 80.20881 | 34860 ft | 491 kts | 123° |
| 2026-04-22 01:49 | 14.28377 | 80.27133 | 34862 ft | 491 kts | 123° |
| 2026-04-22 01:50 | 14.25247 | 80.33365 | 34857 ft | 490 kts | 123° |
| 2026-04-22 01:50 | 14.22093 | 80.39637 | 34860 ft | 492 kts | 123° |
| 2026-04-22 01:51 | 14.18960 | 80.45863 | 34856 ft | 491 kts | 122° |
| 2026-04-22 01:51 | 14.15810 | 80.52120 | 34859 ft | 490 kts | 122° |
| 2026-04-22 01:52 | 14.12684 | 80.58323 | 34858 ft | 490 kts | 122° |
| 2026-04-22 01:52 | 14.09545 | 80.64546 | 34859 ft | 491 kts | 122° |
| 2026-04-22 01:53 | 14.06369 | 80.70839 | 34857 ft | 489 kts | 122° |
| 2026-04-22 01:53 | 14.03223 | 80.77066 | 34859 ft | 490 kts | 123° |
| 2026-04-22 01:54 | 14.00062 | 80.83319 | 34859 ft | 488 kts | 122° |
| 2026-04-22 01:54 | 13.97004 | 80.89578 | 34860 ft | 492 kts | 122° |
| 2026-04-22 01:55 | 13.93948 | 80.95883 | 34860 ft | 490 kts | 121° |
| 2026-04-22 01:55 | 13.90909 | 81.02141 | 34858 ft | 490 kts | 121° |
| 2026-04-22 01:56 | 13.87847 | 81.08435 | 34858 ft | 489 kts | 121° |
| 2026-04-22 01:56 | 13.84797 | 81.14700 | 34856 ft | 488 kts | 121° |
| 2026-04-22 01:57 | 13.81733 | 81.20983 | 34859 ft | 489 kts | 121° |
| 2026-04-22 01:57 | 13.78681 | 81.27237 | 34856 ft | 489 kts | 121° |
| 2026-04-22 01:58 | 13.75637 | 81.33470 | 34859 ft | 489 kts | 121° |
| 2026-04-22 01:58 | 13.72586 | 81.39713 | 34855 ft | 489 kts | 121° |
| 2026-04-22 01:59 | 13.69530 | 81.45959 | 34866 ft | 491 kts | 121° |
| 2026-04-22 01:59 | 13.67986 | 81.49122 | 35133 ft | 497 kts | 121° |
| 2026-04-22 01:59 | 13.66437 | 81.52299 | 35790 ft | 494 kts | 121° |
| 2026-04-22 02:00 | 13.63375 | 81.58575 | 35869 ft | 487 kts | 121° |
| 2026-04-22 02:00 | 13.60335 | 81.64799 | 35875 ft | 488 kts | 121° |
| 2026-04-22 02:01 | 13.57284 | 81.71039 | 35873 ft | 485 kts | 121° |
| 2026-04-22 02:01 | 13.54253 | 81.77232 | 35874 ft | 486 kts | 121° |
| 2026-04-22 02:02 | 13.51193 | 81.83479 | 35875 ft | 486 kts | 121° |
| 2026-04-22 02:02 | 13.48166 | 81.89657 | 35874 ft | 486 kts | 121° |
| 2026-04-22 02:03 | 13.45118 | 81.95871 | 35877 ft | 486 kts | 121° |
| 2026-04-22 02:03 | 13.42066 | 82.02089 | 35875 ft | 487 kts | 121° |
| 2026-04-22 02:04 | 13.37505 | 82.11373 | 35867 ft | 487 kts | 121° |
| 2026-04-22 02:05 | 13.34455 | 82.17575 | 35868 ft | 486 kts | 121° |
| 2026-04-22 02:05 | 13.31413 | 82.23757 | 35868 ft | 488 kts | 121° |
| 2026-04-22 02:06 | 13.28340 | 82.29997 | 35866 ft | 487 kts | 121° |
| 2026-04-22 02:06 | 13.25292 | 82.36182 | 35866 ft | 486 kts | 121° |
| 2026-04-22 02:07 | 13.22239 | 82.42371 | 35866 ft | 486 kts | 121° |
| 2026-04-22 02:07 | 13.19188 | 82.48553 | 35867 ft | 486 kts | 121° |
| 2026-04-22 02:08 | 13.16133 | 82.54737 | 35864 ft | 486 kts | 120° |
| 2026-04-22 02:08 | 13.13071 | 82.60931 | 35868 ft | 488 kts | 120° |
| 2026-04-22 02:09 | 13.09990 | 82.67162 | 35865 ft | 486 kts | 121° |
| 2026-04-22 02:09 | 13.06912 | 82.73379 | 35862 ft | 487 kts | 121° |
| 2026-04-22 02:10 | 13.03860 | 82.79541 | 35860 ft | 486 kts | 121° |
| 2026-04-22 02:10 | 13.00787 | 82.85737 | 35861 ft | 488 kts | 121° |
| 2026-04-22 02:11 | 12.97697 | 82.91966 | 35861 ft | 487 kts | 120° |
| 2026-04-22 02:11 | 12.94633 | 82.98138 | 35862 ft | 487 kts | 121° |
| 2026-04-22 02:12 | 12.91574 | 83.04296 | 35875 ft | 486 kts | 120° |
| 2026-04-22 02:12 | 12.88481 | 83.10516 | 35890 ft | 487 kts | 120° |
| 2026-04-22 02:13 | 12.85416 | 83.16678 | 35891 ft | 486 kts | 120° |
| 2026-04-22 02:13 | 12.82332 | 83.22872 | 35892 ft | 486 kts | 120° |
| 2026-04-22 02:14 | 12.79257 | 83.29042 | 35890 ft | 486 kts | 120° |
| 2026-04-22 02:14 | 12.76178 | 83.35218 | 35892 ft | 487 kts | 120° |
| 2026-04-22 02:15 | 12.73106 | 83.41376 | 35890 ft | 486 kts | 120° |
| 2026-04-22 02:15 | 12.70042 | 83.47512 | 35891 ft | 486 kts | 120° |
| 2026-04-22 02:16 | 12.66961 | 83.53678 | 35890 ft | 485 kts | 120° |
| 2026-04-22 02:16 | 12.63938 | 83.59843 | 35892 ft | 485 kts | 119° |
| 2026-04-22 02:17 | 12.60960 | 83.66061 | 35890 ft | 486 kts | 120° |
| 2026-04-22 02:17 | 12.57963 | 83.72304 | 35889 ft | 485 kts | 119° |
| 2026-04-22 02:18 | 12.54984 | 83.78499 | 35888 ft | 485 kts | 119° |
| 2026-04-22 02:18 | 12.51998 | 83.84701 | 35887 ft | 486 kts | 120° |
| 2026-04-22 02:19 | 12.49021 | 83.90880 | 35888 ft | 485 kts | 120° |
| 2026-04-22 02:19 | 12.46034 | 83.97073 | 35887 ft | 485 kts | 119° |
| 2026-04-22 02:20 | 12.43053 | 84.03251 | 35889 ft | 485 kts | 119° |
| 2026-04-22 02:20 | 12.40074 | 84.09418 | 35888 ft | 484 kts | 119° |
| 2026-04-22 02:21 | 12.37077 | 84.15620 | 35884 ft | 484 kts | 119° |
| 2026-04-22 02:21 | 12.34105 | 84.21761 | 35883 ft | 485 kts | 119° |
| 2026-04-22 02:22 | 12.31105 | 84.27962 | 35881 ft | 484 kts | 119° |
| 2026-04-22 02:22 | 12.28128 | 84.34107 | 35884 ft | 483 kts | 119° |
| 2026-04-22 02:23 | 12.25135 | 84.40282 | 35884 ft | 483 kts | 119° |
| 2026-04-22 02:23 | 12.22158 | 84.46420 | 35884 ft | 483 kts | 119° |
| 2026-04-22 02:24 | 12.19170 | 84.52576 | 35883 ft | 483 kts | 119° |
| 2026-04-22 02:24 | 12.16191 | 84.58708 | 35885 ft | 482 kts | 119° |
| 2026-04-22 02:25 | 12.13216 | 84.64831 | 35895 ft | 482 kts | 119° |
| 2026-04-22 02:25 | 12.10215 | 84.71001 | 35906 ft | 482 kts | 119° |
| 2026-04-22 02:26 | 12.07228 | 84.77137 | 35902 ft | 483 kts | 119° |
| 2026-04-22 02:26 | 12.04216 | 84.83322 | 35904 ft | 482 kts | 119° |
| 2026-04-22 02:27 | 12.01228 | 84.89455 | 35902 ft | 481 kts | 119° |
| 2026-04-22 02:27 | 11.98248 | 84.95564 | 35906 ft | 481 kts | 119° |
| 2026-04-22 02:28 | 11.95252 | 85.01705 | 35903 ft | 481 kts | 119° |
| 2026-04-22 02:28 | 11.92279 | 85.07793 | 35905 ft | 482 kts | 119° |
| 2026-04-22 02:29 | 11.89265 | 85.13960 | 35902 ft | 482 kts | 119° |
| 2026-04-22 02:29 | 11.86260 | 85.20107 | 35898 ft | 481 kts | 119° |
| 2026-04-22 02:30 | 11.83279 | 85.26199 | 35897 ft | 482 kts | 119° |
| 2026-04-22 02:30 | 11.80285 | 85.32314 | 35895 ft | 481 kts | 119° |
| 2026-04-22 02:31 | 11.77286 | 85.38435 | 35894 ft | 480 kts | 119° |
| 2026-04-22 02:31 | 11.74301 | 85.44524 | 35894 ft | 480 kts | 119° |
| 2026-04-22 02:32 | 11.71311 | 85.50620 | 35892 ft | 480 kts | 119° |
| 2026-04-22 02:32 | 11.68336 | 85.56680 | 35893 ft | 480 kts | 118° |
| 2026-04-22 02:33 | 11.65344 | 85.62771 | 35893 ft | 481 kts | 118° |
| 2026-04-22 02:33 | 11.62339 | 85.68884 | 35890 ft | 481 kts | 119° |
| 2026-04-22 02:34 | 11.59348 | 85.74966 | 35889 ft | 480 kts | 119° |
| 2026-04-22 02:34 | 11.56350 | 85.81057 | 35888 ft | 480 kts | 119° |
| 2026-04-22 02:35 | 11.53345 | 85.87160 | 35888 ft | 480 kts | 119° |
| 2026-04-22 02:35 | 11.50332 | 85.93275 | 35889 ft | 480 kts | 118° |
| 2026-04-22 02:36 | 11.47348 | 85.99326 | 35889 ft | 480 kts | 119° |
| 2026-04-22 02:36 | 11.44345 | 86.05411 | 35888 ft | 480 kts | 118° |
| 2026-04-22 02:37 | 11.41351 | 86.11476 | 35888 ft | 480 kts | 118° |
| 2026-04-22 02:37 | 11.38356 | 86.17539 | 35887 ft | 480 kts | 119° |
| 2026-04-22 02:38 | 11.35352 | 86.23614 | 35888 ft | 480 kts | 118° |
| 2026-04-22 02:38 | 11.32334 | 86.29717 | 35891 ft | 481 kts | 118° |
| 2026-04-22 02:39 | 11.29338 | 86.35771 | 35899 ft | 480 kts | 118° |
| 2026-04-22 02:39 | 11.26333 | 86.41839 | 35909 ft | 480 kts | 118° |
| 2026-04-22 02:40 | 11.23326 | 86.47906 | 35909 ft | 479 kts | 118° |
| 2026-04-22 02:40 | 11.20327 | 86.53954 | 35908 ft | 480 kts | 118° |
| 2026-04-22 02:41 | 11.17305 | 86.60046 | 35908 ft | 480 kts | 118° |
| 2026-04-22 02:41 | 11.14298 | 86.66100 | 35908 ft | 480 kts | 118° |
| 2026-04-22 02:42 | 11.11278 | 86.72180 | 35907 ft | 479 kts | 118° |
| 2026-04-22 02:42 | 11.08265 | 86.78241 | 35907 ft | 479 kts | 118° |
| 2026-04-22 02:43 | 11.05262 | 86.84280 | 35907 ft | 478 kts | 118° |
| 2026-04-22 02:43 | 11.02259 | 86.90313 | 35906 ft | 478 kts | 118° |
| 2026-04-22 02:44 | 10.99259 | 86.96339 | 35907 ft | 479 kts | 118° |
| 2026-04-22 02:44 | 10.96241 | 87.02394 | 35906 ft | 479 kts | 118° |
| 2026-04-22 02:45 | 10.93232 | 87.08431 | 35907 ft | 478 kts | 118° |
| 2026-04-22 02:45 | 10.90211 | 87.14486 | 35906 ft | 479 kts | 118° |
| 2026-04-22 02:46 | 10.87185 | 87.20548 | 35912 ft | 478 kts | 118° |
| 2026-04-22 02:46 | 10.84149 | 87.26625 | 35910 ft | 479 kts | 118° |
| 2026-04-22 02:47 | 10.81137 | 87.32652 | 35911 ft | 477 kts | 118° |
| 2026-04-22 02:47 | 10.78117 | 87.38691 | 35911 ft | 478 kts | 118° |
| 2026-04-22 02:48 | 10.75113 | 87.44697 | 35911 ft | 478 kts | 118° |
| 2026-04-22 02:48 | 10.72093 | 87.50729 | 35911 ft | 478 kts | 118° |
| 2026-04-22 02:49 | 10.69082 | 87.56739 | 35909 ft | 478 kts | 118° |
| 2026-04-22 02:49 | 10.66080 | 87.62728 | 35910 ft | 477 kts | 118° |
| 2026-04-22 02:50 | 10.63058 | 87.68754 | 35909 ft | 477 kts | 118° |
| 2026-04-22 02:50 | 10.60023 | 87.74802 | 35908 ft | 477 kts | 118° |
| 2026-04-22 02:51 | 10.57015 | 87.80792 | 35898 ft | 477 kts | 118° |
| 2026-04-22 02:51 | 10.53990 | 87.86813 | 35890 ft | 477 kts | 118° |
| 2026-04-22 02:52 | 10.50969 | 87.92823 | 35891 ft | 477 kts | 118° |
| 2026-04-22 02:52 | 10.47943 | 87.98840 | 35889 ft | 477 kts | 118° |
| 2026-04-22 02:53 | 10.44942 | 88.04804 | 35888 ft | 477 kts | 118° |
| 2026-04-22 02:53 | 10.41926 | 88.10793 | 35890 ft | 477 kts | 118° |
| 2026-04-22 02:54 | 10.38909 | 88.16782 | 35900 ft | 477 kts | 118° |
| 2026-04-22 02:54 | 10.35882 | 88.22786 | 35908 ft | 477 kts | 118° |
| 2026-04-22 02:55 | 10.32872 | 88.28754 | 35908 ft | 476 kts | 118° |
| 2026-04-22 02:55 | 10.29847 | 88.34747 | 35907 ft | 477 kts | 118° |
| 2026-04-22 02:56 | 10.26828 | 88.40726 | 35907 ft | 476 kts | 118° |
| 2026-04-22 02:56 | 10.23803 | 88.46715 | 35907 ft | 476 kts | 118° |
| 2026-04-22 02:57 | 10.20779 | 88.52696 | 35908 ft | 477 kts | 118° |
| 2026-04-22 02:57 | 10.17924 | 88.58778 | 35906 ft | 477 kts | 116° |
| 2026-04-22 02:58 | 10.15148 | 88.64889 | 35906 ft | 477 kts | 115° |
| 2026-04-22 02:58 | 10.12366 | 88.70987 | 35908 ft | 476 kts | 116° |
| 2026-04-22 02:59 | 10.09572 | 88.77095 | 35908 ft | 476 kts | 116° |
| 2026-04-22 02:59 | 10.06767 | 88.83215 | 35908 ft | 476 kts | 116° |
| 2026-04-22 03:00 | 10.03967 | 88.89319 | 35908 ft | 475 kts | 115° |
| 2026-04-22 03:00 | 10.01185 | 88.95375 | 35908 ft | 476 kts | 116° |
| 2026-04-22 03:01 | 9.98376 | 89.01488 | 35907 ft | 477 kts | 115° |
| 2026-04-22 03:01 | 9.95574 | 89.07580 | 35907 ft | 476 kts | 115° |
| 2026-04-22 03:02 | 9.92789 | 89.13632 | 35907 ft | 476 kts | 115° |
| 2026-04-22 03:02 | 9.89981 | 89.19731 | 35907 ft | 475 kts | 115° |
| 2026-04-22 03:03 | 9.87183 | 89.25804 | 35910 ft | 476 kts | 116° |
| 2026-04-22 03:03 | 9.84377 | 89.31890 | 35909 ft | 477 kts | 115° |
| 2026-04-22 03:04 | 9.81565 | 89.37987 | 35910 ft | 477 kts | 116° |
| 2026-04-22 03:04 | 9.78755 | 89.44076 | 35908 ft | 477 kts | 115° |
| 2026-04-22 03:05 | 9.75953 | 89.50144 | 35909 ft | 477 kts | 115° |
| 2026-04-22 03:05 | 9.73138 | 89.56238 | 35908 ft | 477 kts | 115° |
| 2026-04-22 03:06 | 9.70314 | 89.62347 | 35908 ft | 477 kts | 115° |
| 2026-04-22 03:06 | 9.67497 | 89.68436 | 35909 ft | 477 kts | 116° |
| 2026-04-22 03:07 | 9.64682 | 89.74522 | 35912 ft | 476 kts | 115° |
| 2026-04-22 03:07 | 9.61869 | 89.80595 | 35909 ft | 476 kts | 115° |
| 2026-04-22 03:08 | 9.59059 | 89.86661 | 35909 ft | 475 kts | 115° |
| 2026-04-22 03:08 | 9.56255 | 89.92710 | 35907 ft | 476 kts | 115° |
| 2026-04-22 03:09 | 9.53436 | 89.98789 | 35894 ft | 477 kts | 115° |
| 2026-04-22 03:09 | 9.50612 | 90.04874 | 35887 ft | 477 kts | 115° |
| 2026-04-22 03:10 | 9.47797 | 90.10939 | 35886 ft | 476 kts | 115° |
| 2026-04-22 03:10 | 9.44993 | 90.16975 | 35890 ft | 476 kts | 115° |
| 2026-04-22 03:11 | 9.42169 | 90.23050 | 35894 ft | 475 kts | 115° |
| 2026-04-22 03:11 | 9.39355 | 90.29102 | 35897 ft | 476 kts | 115° |
| 2026-04-22 03:12 | 9.36549 | 90.35133 | 35898 ft | 475 kts | 115° |
| 2026-04-22 03:12 | 9.32318 | 90.44221 | 35900 ft | 475 kts | 115° |
| 2026-04-22 03:13 | 9.29497 | 90.50275 | 35908 ft | 475 kts | 115° |
| 2026-04-22 03:13 | 9.26679 | 90.56322 | 35905 ft | 475 kts | 115° |
| 2026-04-22 03:14 | 9.23861 | 90.62363 | 35906 ft | 476 kts | 115° |
| 2026-04-22 03:14 | 9.21025 | 90.68443 | 35909 ft | 476 kts | 115° |
| 2026-04-22 03:15 | 9.18198 | 90.74498 | 35909 ft | 475 kts | 115° |
| 2026-04-22 03:15 | 9.15367 | 90.80559 | 35910 ft | 475 kts | 115° |
| 2026-04-22 03:16 | 9.12551 | 90.86585 | 35910 ft | 475 kts | 115° |
| 2026-04-22 03:16 | 9.09724 | 90.92631 | 35908 ft | 476 kts | 115° |
| 2026-04-22 03:17 | 9.06880 | 90.98711 | 35908 ft | 476 kts | 115° |
| 2026-04-22 03:17 | 9.04053 | 91.04751 | 35909 ft | 475 kts | 115° |
| 2026-04-22 03:18 | 9.01229 | 91.10780 | 35909 ft | 475 kts | 115° |
| 2026-04-22 03:18 | 8.98393 | 91.16835 | 35908 ft | 475 kts | 115° |
| 2026-04-22 03:19 | 8.95565 | 91.22866 | 35909 ft | 476 kts | 115° |
| 2026-04-22 03:19 | 8.92746 | 91.28879 | 35907 ft | 474 kts | 115° |
| 2026-04-22 03:20 | 8.89910 | 91.34923 | 35907 ft | 474 kts | 115° |
| 2026-04-22 03:20 | 8.87084 | 91.40942 | 35908 ft | 475 kts | 115° |
| 2026-04-22 03:21 | 8.84248 | 91.46981 | 35909 ft | 475 kts | 115° |
| 2026-04-22 03:21 | 8.81414 | 91.53011 | 35908 ft | 474 kts | 115° |
| 2026-04-22 03:22 | 8.78584 | 91.59030 | 35909 ft | 474 kts | 115° |
| 2026-04-22 03:22 | 8.75745 | 91.65067 | 35908 ft | 475 kts | 115° |
| 2026-04-22 03:23 | 8.72918 | 91.71073 | 35911 ft | 473 kts | 115° |
| 2026-04-22 03:23 | 8.70081 | 91.77098 | 35911 ft | 474 kts | 115° |
| 2026-04-22 03:24 | 8.67253 | 91.83102 | 35912 ft | 474 kts | 115° |
| 2026-04-22 03:24 | 8.64399 | 91.89159 | 35912 ft | 475 kts | 115° |
| 2026-04-22 03:25 | 8.61575 | 91.95148 | 35911 ft | 474 kts | 115° |
| 2026-04-22 03:25 | 8.58738 | 92.01185 | 35899 ft | 475 kts | 114° |
| 2026-04-22 03:26 | 8.56053 | 92.07265 | 35892 ft | 474 kts | 114° |
| 2026-04-22 03:26 | 8.53363 | 92.13363 | 35889 ft | 476 kts | 114° |
| 2026-04-22 03:27 | 8.50681 | 92.19430 | 35888 ft | 474 kts | 114° |
| 2026-04-22 03:27 | 8.47978 | 92.25535 | 35887 ft | 475 kts | 114° |
| 2026-04-22 03:28 | 8.45276 | 92.31631 | 35888 ft | 475 kts | 114° |
| 2026-04-22 03:28 | 8.42575 | 92.37717 | 35886 ft | 476 kts | 114° |
| 2026-04-22 03:29 | 8.39866 | 92.43819 | 35887 ft | 476 kts | 114° |
| 2026-04-22 03:29 | 8.37155 | 92.49923 | 35888 ft | 475 kts | 114° |
| 2026-04-22 03:30 | 8.34469 | 92.55968 | 35885 ft | 475 kts | 114° |
| 2026-04-22 03:30 | 8.31755 | 92.62073 | 35887 ft | 476 kts | 114° |
| 2026-04-22 03:31 | 8.29033 | 92.68190 | 35892 ft | 476 kts | 114° |
| 2026-04-22 03:31 | 8.26336 | 92.74251 | 35891 ft | 476 kts | 114° |
| 2026-04-22 03:32 | 8.23608 | 92.80376 | 35891 ft | 476 kts | 114° |
| 2026-04-22 03:32 | 8.20878 | 92.86504 | 35893 ft | 475 kts | 114° |
| 2026-04-22 03:33 | 8.18161 | 92.92601 | 35896 ft | 476 kts | 114° |
| 2026-04-22 03:33 | 8.15449 | 92.98683 | 35892 ft | 477 kts | 114° |
| 2026-04-22 03:34 | 8.12729 | 93.04778 | 35891 ft | 478 kts | 114° |
| 2026-04-22 03:34 | 8.10008 | 93.10876 | 35889 ft | 476 kts | 114° |
| 2026-04-22 03:35 | 8.07287 | 93.16969 | 35887 ft | 474 kts | 114° |
| 2026-04-22 03:35 | 8.04577 | 93.23035 | 35887 ft | 474 kts | 114° |
| 2026-04-22 03:36 | 8.01878 | 93.29071 | 35887 ft | 474 kts | 114° |
| 2026-04-22 03:36 | 7.99162 | 93.35145 | 35894 ft | 474 kts | 114° |
| 2026-04-22 03:37 | 7.96448 | 93.41213 | 35899 ft | 475 kts | 114° |
| 2026-04-22 03:37 | 7.93745 | 93.47252 | 35897 ft | 473 kts | 114° |
| 2026-04-22 03:38 | 7.91045 | 93.53304 | 35895 ft | 472 kts | 114° |
| 2026-04-22 03:38 | 7.88370 | 93.59333 | 35899 ft | 472 kts | 114° |
| 2026-04-22 03:39 | 7.85668 | 93.65417 | 35907 ft | 473 kts | 114° |
| 2026-04-22 03:39 | 7.82956 | 93.71520 | 35902 ft | 473 kts | 114° |
| 2026-04-22 03:40 | 7.80264 | 93.77577 | 35894 ft | 473 kts | 114° |
| 2026-04-22 03:40 | 7.77568 | 93.83637 | 35891 ft | 472 kts | 114° |
| 2026-04-22 03:41 | 7.74861 | 93.89720 | 35889 ft | 471 kts | 114° |
| 2026-04-22 03:41 | 7.72193 | 93.95712 | 35888 ft | 472 kts | 114° |
| 2026-04-22 03:42 | 7.69490 | 94.01781 | 35887 ft | 473 kts | 114° |
| 2026-04-22 03:42 | 7.66808 | 94.07800 | 35889 ft | 474 kts | 114° |
| 2026-04-22 03:43 | 7.64110 | 94.13851 | 35888 ft | 472 kts | 114° |
| 2026-04-22 03:43 | 7.61415 | 94.19894 | 35888 ft | 473 kts | 113° |
| 2026-04-22 03:44 | 7.58718 | 94.25939 | 35887 ft | 473 kts | 114° |
| 2026-04-22 03:44 | 7.56025 | 94.31971 | 35886 ft | 473 kts | 114° |
| 2026-04-22 03:45 | 7.53330 | 94.38005 | 35887 ft | 473 kts | 114° |
| 2026-04-22 03:45 | 7.50587 | 94.44050 | 35887 ft | 473 kts | 115° |
| 2026-04-22 03:46 | 7.47685 | 94.49993 | 35885 ft | 473 kts | 116° |
| 2026-04-22 03:46 | 7.44785 | 94.55936 | 35885 ft | 473 kts | 115° |
| 2026-04-22 03:47 | 7.41895 | 94.61871 | 35886 ft | 473 kts | 115° |
| 2026-04-22 03:47 | 7.38992 | 94.67839 | 35891 ft | 473 kts | 116° |
| 2026-04-22 03:48 | 7.36099 | 94.73787 | 35888 ft | 472 kts | 116° |
| 2026-04-22 03:48 | 7.33229 | 94.79685 | 35888 ft | 473 kts | 116° |
| 2026-04-22 03:49 | 7.30319 | 94.85667 | 35887 ft | 472 kts | 116° |
| 2026-04-22 03:49 | 7.27430 | 94.91604 | 35889 ft | 472 kts | 116° |
| 2026-04-22 03:50 | 7.24540 | 94.97540 | 35888 ft | 472 kts | 116° |
| 2026-04-22 03:50 | 7.21652 | 95.03469 | 35883 ft | 473 kts | 116° |
| 2026-04-22 03:51 | 7.18750 | 95.09426 | 35886 ft | 472 kts | 116° |
| 2026-04-22 03:51 | 7.15867 | 95.15341 | 35886 ft | 471 kts | 116° |
| 2026-04-22 03:52 | 7.12971 | 95.21280 | 35886 ft | 471 kts | 116° |
| 2026-04-22 03:52 | 7.10079 | 95.27209 | 35887 ft | 471 kts | 116° |
| 2026-04-22 03:53 | 7.07189 | 95.33131 | 35886 ft | 473 kts | 116° |
| 2026-04-22 03:53 | 7.04309 | 95.39032 | 35883 ft | 472 kts | 115° |
| 2026-04-22 03:54 | 7.01406 | 95.44976 | 35875 ft | 472 kts | 115° |
| 2026-04-22 03:54 | 6.98517 | 95.50890 | 35872 ft | 472 kts | 115° |
| 2026-04-22 03:55 | 6.95627 | 95.56803 | 35865 ft | 471 kts | 115° |
| 2026-04-22 03:55 | 6.92724 | 95.62740 | 35866 ft | 472 kts | 115° |
| 2026-04-22 03:56 | 6.89821 | 95.68677 | 35870 ft | 472 kts | 115° |
| 2026-04-22 03:56 | 6.86910 | 95.74626 | 35870 ft | 471 kts | 115° |
| 2026-04-22 03:57 | 6.84011 | 95.80549 | 35871 ft | 471 kts | 115° |
| 2026-04-22 03:57 | 6.81099 | 95.86496 | 35877 ft | 471 kts | 115° |
| 2026-04-22 03:58 | 6.78197 | 95.92422 | 35881 ft | 472 kts | 115° |
| 2026-04-22 03:58 | 6.75302 | 95.98329 | 35887 ft | 471 kts | 115° |
| 2026-04-22 03:59 | 6.72402 | 96.04250 | 35888 ft | 472 kts | 115° |
| 2026-04-22 03:59 | 6.69499 | 96.10173 | 35888 ft | 471 kts | 115° |
| 2026-04-22 04:00 | 6.66608 | 96.16070 | 35888 ft | 471 kts | 115° |
| 2026-04-22 04:00 | 6.63714 | 96.21970 | 35887 ft | 471 kts | 115° |
| 2026-04-22 04:01 | 6.60821 | 96.27866 | 35887 ft | 471 kts | 115° |
| 2026-04-22 04:01 | 6.57910 | 96.33799 | 35887 ft | 470 kts | 115° |
| 2026-04-22 04:02 | 6.55026 | 96.39671 | 35886 ft | 471 kts | 115° |
| 2026-04-22 04:02 | 6.52120 | 96.45589 | 35886 ft | 470 kts | 115° |
| 2026-04-22 04:03 | 6.49650 | 96.51627 | 35889 ft | 469 kts | 106° |
| 2026-04-22 04:03 | 6.47793 | 96.57950 | 35885 ft | 468 kts | 105° |
| 2026-04-22 04:04 | 6.45965 | 96.64204 | 35885 ft | 469 kts | 105° |
| 2026-04-22 04:04 | 6.44123 | 96.70498 | 35890 ft | 469 kts | 106° |
| 2026-04-22 04:05 | 6.42276 | 96.76799 | 35890 ft | 467 kts | 105° |
| 2026-04-22 04:05 | 6.40428 | 96.83100 | 35889 ft | 468 kts | 105° |
| 2026-04-22 04:06 | 6.38593 | 96.89354 | 35889 ft | 468 kts | 106° |
| 2026-04-22 04:06 | 6.36746 | 96.95643 | 35889 ft | 468 kts | 106° |
| 2026-04-22 04:07 | 6.34902 | 97.01920 | 35888 ft | 468 kts | 105° |
| 2026-04-22 04:07 | 6.33075 | 97.08136 | 35877 ft | 467 kts | 105° |
| 2026-04-22 04:08 | 6.31229 | 97.14413 | 35867 ft | 466 kts | 105° |
| 2026-04-22 04:08 | 6.29397 | 97.20637 | 35867 ft | 467 kts | 105° |
| 2026-04-22 04:09 | 6.27548 | 97.26921 | 35866 ft | 468 kts | 105° |
| 2026-04-22 04:09 | 6.25710 | 97.33162 | 35866 ft | 468 kts | 106° |
| 2026-04-22 04:10 | 6.23862 | 97.39435 | 35865 ft | 467 kts | 105° |
| 2026-04-22 04:10 | 6.22018 | 97.45689 | 35865 ft | 466 kts | 105° |
| 2026-04-22 04:11 | 6.20172 | 97.51945 | 35864 ft | 466 kts | 105° |
| 2026-04-22 04:11 | 6.17896 | 97.58044 | 35862 ft | 469 kts | 117° |
| 2026-04-22 04:12 | 6.14032 | 97.63399 | 35868 ft | 472 kts | 129° |
| 2026-04-22 04:12 | 6.09750 | 97.68381 | 35869 ft | 472 kts | 129° |
| 2026-04-22 04:13 | 6.05444 | 97.73377 | 35869 ft | 471 kts | 129° |
| 2026-04-22 04:13 | 6.01147 | 97.78360 | 35869 ft | 472 kts | 129° |
| 2026-04-22 04:14 | 5.96812 | 97.83385 | 35870 ft | 472 kts | 129° |
| 2026-04-22 04:14 | 5.92499 | 97.88383 | 35869 ft | 472 kts | 129° |
| 2026-04-22 04:15 | 5.88191 | 97.93374 | 35869 ft | 472 kts | 129° |
| 2026-04-22 04:15 | 5.83869 | 97.98380 | 35872 ft | 472 kts | 129° |
| 2026-04-22 04:16 | 5.77413 | 98.05856 | 35878 ft | 472 kts | 129° |
| 2026-04-22 04:17 | 5.73107 | 98.10839 | 35886 ft | 472 kts | 129° |
| 2026-04-22 04:17 | 5.68799 | 98.15824 | 35887 ft | 472 kts | 129° |
| 2026-04-22 04:18 | 5.64503 | 98.20794 | 35887 ft | 472 kts | 129° |
| 2026-04-22 04:18 | 5.60192 | 98.25781 | 35887 ft | 472 kts | 129° |
| 2026-04-22 04:19 | 5.55861 | 98.30789 | 35888 ft | 473 kts | 129° |
| 2026-04-22 04:19 | 5.51567 | 98.35753 | 35886 ft | 472 kts | 129° |
| 2026-04-22 04:20 | 5.47262 | 98.40728 | 35886 ft | 472 kts | 129° |
| 2026-04-22 04:20 | 5.42956 | 98.45704 | 35886 ft | 472 kts | 129° |
| 2026-04-22 04:21 | 5.38626 | 98.50706 | 35886 ft | 472 kts | 129° |
| 2026-04-22 04:21 | 5.34336 | 98.55660 | 35880 ft | 472 kts | 129° |
| 2026-04-22 04:22 | 5.30028 | 98.60635 | 35878 ft | 472 kts | 129° |
| 2026-04-22 04:22 | 5.25693 | 98.65639 | 35877 ft | 473 kts | 129° |
| 2026-04-22 04:23 | 5.21366 | 98.70632 | 35873 ft | 472 kts | 129° |
| 2026-04-22 04:23 | 5.17076 | 98.75583 | 35869 ft | 472 kts | 129° |
| 2026-04-22 04:24 | 5.12767 | 98.80554 | 35869 ft | 471 kts | 129° |
| 2026-04-22 04:24 | 5.08428 | 98.85558 | 35869 ft | 471 kts | 129° |
| 2026-04-22 04:25 | 5.04103 | 98.90546 | 35869 ft | 472 kts | 129° |
| 2026-04-22 04:25 | 4.99814 | 98.95489 | 35869 ft | 471 kts | 129° |
| 2026-04-22 04:26 | 4.95496 | 99.00466 | 35869 ft | 472 kts | 129° |
| 2026-04-22 04:26 | 4.91205 | 99.05411 | 35868 ft | 472 kts | 129° |
| 2026-04-22 04:27 | 4.86871 | 99.10406 | 35869 ft | 473 kts | 129° |
| 2026-04-22 04:27 | 4.82527 | 99.15408 | 35867 ft | 473 kts | 129° |
| 2026-04-22 04:28 | 4.78190 | 99.20403 | 35867 ft | 473 kts | 129° |
| 2026-04-22 04:28 | 4.73825 | 99.25429 | 35867 ft | 473 kts | 129° |
| 2026-04-22 04:29 | 4.69496 | 99.30412 | 35866 ft | 474 kts | 129° |
| 2026-04-22 04:29 | 4.65163 | 99.35399 | 35866 ft | 475 kts | 129° |
| 2026-04-22 04:30 | 4.60828 | 99.40387 | 35865 ft | 474 kts | 129° |
| 2026-04-22 04:30 | 4.56478 | 99.45390 | 35866 ft | 475 kts | 129° |
| 2026-04-22 04:31 | 4.52147 | 99.50373 | 35863 ft | 475 kts | 129° |
| 2026-04-22 04:31 | 4.48596 | 99.55941 | 35864 ft | 473 kts | 113° |
| 2026-04-22 04:32 | 4.45991 | 99.61976 | 35864 ft | 473 kts | 112° |
| 2026-04-22 04:32 | 4.43401 | 99.68040 | 35869 ft | 474 kts | 112° |
| 2026-04-22 04:33 | 4.40785 | 99.74161 | 35869 ft | 472 kts | 112° |
| 2026-04-22 04:33 | 4.38186 | 99.80238 | 35874 ft | 473 kts | 112° |
| 2026-04-22 04:34 | 4.35583 | 99.86323 | 35885 ft | 474 kts | 112° |
| 2026-04-22 04:34 | 4.32990 | 99.92381 | 35888 ft | 474 kts | 112° |
| 2026-04-22 04:35 | 4.30384 | 99.98467 | 35889 ft | 475 kts | 112° |
| 2026-04-22 04:35 | 4.27790 | 100.04524 | 35889 ft | 474 kts | 112° |
| 2026-04-22 04:36 | 4.25184 | 100.10607 | 35885 ft | 474 kts | 112° |
| 2026-04-22 04:36 | 4.22593 | 100.16654 | 35878 ft | 474 kts | 112° |
| 2026-04-22 04:37 | 4.19981 | 100.22749 | 35869 ft | 474 kts | 112° |
| 2026-04-22 04:37 | 4.17385 | 100.28803 | 35867 ft | 474 kts | 112° |
| 2026-04-22 04:38 | 4.14788 | 100.34860 | 35867 ft | 474 kts | 112° |
| 2026-04-22 04:38 | 4.12186 | 100.40927 | 35867 ft | 474 kts | 112° |
| 2026-04-22 04:39 | 4.09591 | 100.46976 | 35866 ft | 474 kts | 112° |
| 2026-04-22 04:39 | 4.06989 | 100.53037 | 35865 ft | 473 kts | 112° |
| 2026-04-22 04:40 | 4.04376 | 100.59126 | 35866 ft | 474 kts | 112° |
| 2026-04-22 04:40 | 4.01781 | 100.65171 | 35865 ft | 473 kts | 112° |
| 2026-04-22 04:41 | 3.99179 | 100.71230 | 35869 ft | 473 kts | 112° |
| 2026-04-22 04:41 | 3.96581 | 100.77279 | 35869 ft | 474 kts | 112° |
| 2026-04-22 04:42 | 3.93973 | 100.83349 | 35859 ft | 472 kts | 112° |
| 2026-04-22 04:42 | 3.91396 | 100.89345 | 35870 ft | 470 kts | 112° |
| 2026-04-22 04:43 | 3.88810 | 100.95361 | 35868 ft | 470 kts | 112° |
| 2026-04-22 04:43 | 3.86215 | 101.01398 | 35861 ft | 470 kts | 112° |
| 2026-04-22 04:44 | 3.83585 | 101.07514 | 35860 ft | 488 kts | 112° |
| 2026-04-22 04:44 | 3.80856 | 101.13863 | 35857 ft | 503 kts | 112° |
| 2026-04-22 04:45 | 3.78030 | 101.20317 | 35858 ft | 509 kts | 116° |
| 2026-04-22 04:45 | 3.73933 | 101.26135 | 35870 ft | 512 kts | 130° |
| 2026-04-22 04:46 | 3.69051 | 101.31377 | 35870 ft | 514 kts | 131° |
| 2026-04-22 04:46 | 3.64174 | 101.36578 | 35875 ft | 514 kts | 131° |
| 2026-04-22 04:47 | 3.59264 | 101.41811 | 35881 ft | 515 kts | 131° |
| 2026-04-22 04:47 | 3.54356 | 101.47042 | 35880 ft | 515 kts | 131° |
| 2026-04-22 04:48 | 3.49445 | 101.52275 | 35884 ft | 516 kts | 131° |
| 2026-04-22 04:48 | 3.44512 | 101.57531 | 35909 ft | 516 kts | 131° |
| 2026-04-22 04:49 | 3.39595 | 101.62769 | 35925 ft | 517 kts | 131° |
| 2026-04-22 04:49 | 3.34646 | 101.68040 | 35933 ft | 518 kts | 132° |
| 2026-04-22 04:50 | 3.29697 | 101.73310 | 35921 ft | 519 kts | 132° |
| 2026-04-22 04:50 | 3.24517 | 101.78370 | 35917 ft | 520 kts | 137° |
| 2026-04-22 04:51 | 3.19052 | 101.83141 | 35922 ft | 520 kts | 137° |
| 2026-04-22 04:51 | 3.13620 | 101.87881 | 35929 ft | 520 kts | 137° |
| 2026-04-22 04:52 | 3.08133 | 101.92671 | 35936 ft | 521 kts | 137° |
| 2026-04-22 04:52 | 3.02655 | 101.97456 | 35937 ft | 521 kts | 138° |
| 2026-04-22 04:53 | 2.97175 | 102.02242 | 35934 ft | 522 kts | 138° |
| 2026-04-22 04:53 | 2.91712 | 102.07014 | 35920 ft | 521 kts | 138° |
| 2026-04-22 04:54 | 2.86239 | 102.11793 | 35902 ft | 521 kts | 138° |
| 2026-04-22 04:54 | 2.80744 | 102.16592 | 35892 ft | 521 kts | 137° |
| 2026-04-22 04:55 | 2.75234 | 102.21403 | 35886 ft | 522 kts | 137° |
| 2026-04-22 04:55 | 2.69611 | 102.25961 | 35878 ft | 523 kts | 146° |
| 2026-04-22 04:56 | 2.63071 | 102.29307 | 35876 ft | 524 kts | 158° |
| 2026-04-22 04:56 | 2.55940 | 102.30967 | 35873 ft | 525 kts | 174° |
| 2026-04-22 04:57 | 2.48653 | 102.30552 | 35877 ft | 526 kts | 191° |
| 2026-04-22 04:57 | 2.41674 | 102.28165 | 35877 ft | 527 kts | 200° |
| 2026-04-22 04:58 | 2.34579 | 102.26514 | 35877 ft | 525 kts | 184° |
| 2026-04-22 04:58 | 2.27256 | 102.26811 | 35878 ft | 523 kts | 174° |
| 2026-04-22 04:59 | 2.19918 | 102.27037 | 35871 ft | 525 kts | 181° |
| 2026-04-22 04:59 | 2.12611 | 102.26520 | 35873 ft | 525 kts | 185° |
| 2026-04-22 05:00 | 2.05291 | 102.25562 | 35870 ft | 525 kts | 188° |
| 2026-04-22 05:00 | 1.97982 | 102.24308 | 35858 ft | 525 kts | 193° |
| 2026-04-22 05:01 | 1.91182 | 102.21632 | 35795 ft | 517 kts | 210° |
| 2026-04-22 05:01 | 1.88206 | 102.19648 | 35662 ft | 501 kts | 218° |
| 2026-04-22 05:01 | 1.85657 | 102.17340 | 35488 ft | 488 kts | 226° |
| 2026-04-22 05:01 | 1.83497 | 102.14738 | 34684 ft | 488 kts | 235° |
| 2026-04-22 05:02 | 1.81748 | 102.11865 | 33447 ft | 495 kts | 244° |
| 2026-04-22 05:02 | 1.80386 | 102.08625 | 31900 ft | 508 kts | 252° |
| 2026-04-22 05:02 | 1.79534 | 102.05181 | 30545 ft | 516 kts | 262° |
| 2026-04-22 05:02 | 1.79253 | 102.01606 | 29892 ft | 509 kts | 271° |
| 2026-04-22 05:03 | 1.79522 | 101.98166 | 29633 ft | 495 kts | 279° |
| 2026-04-22 05:03 | 1.80288 | 101.94849 | 29213 ft | 486 kts | 288° |
| 2026-04-22 05:03 | 1.81519 | 101.91736 | 28541 ft | 482 kts | 296° |
| 2026-04-22 05:03 | 1.83213 | 101.88833 | 27816 ft | 480 kts | 305° |
| 2026-04-22 05:04 | 1.85312 | 101.86253 | 27168 ft | 477 kts | 314° |
| 2026-04-22 05:04 | 1.87766 | 101.84037 | 26587 ft | 472 kts | 323° |
| 2026-04-22 05:04 | 1.90465 | 101.82250 | 26014 ft | 467 kts | 331° |
| 2026-04-22 05:04 | 1.93424 | 101.80869 | 25412 ft | 462 kts | 340° |
| 2026-04-22 05:05 | 1.96475 | 101.79959 | 24802 ft | 458 kts | 348° |
| 2026-04-22 05:05 | 1.99644 | 101.79501 | 24187 ft | 454 kts | 356° |
| 2026-04-22 05:05 | 2.02763 | 101.79520 | 23862 ft | 442 kts | 5° |
| 2026-04-22 05:05 | 2.05748 | 101.79980 | 23783 ft | 425 kts | 13° |
| 2026-04-22 05:06 | 2.08527 | 101.80809 | 23771 ft | 407 kts | 21° |
| 2026-04-22 05:06 | 2.11088 | 101.81958 | 23758 ft | 390 kts | 28° |
| 2026-04-22 05:06 | 2.13348 | 101.83335 | 23745 ft | 374 kts | 36° |
| 2026-04-22 05:06 | 2.15352 | 101.84911 | 23735 ft | 358 kts | 41° |
| 2026-04-22 05:07 | 2.17197 | 101.86537 | 23627 ft | 347 kts | 42° |
| 2026-04-22 05:07 | 2.18990 | 101.88124 | 23272 ft | 344 kts | 42° |
| 2026-04-22 05:07 | 2.20793 | 101.89721 | 22805 ft | 345 kts | 42° |
| 2026-04-22 05:07 | 2.22578 | 101.91301 | 22384 ft | 344 kts | 42° |
| 2026-04-22 05:08 | 2.24385 | 101.92901 | 22002 ft | 342 kts | 42° |
| 2026-04-22 05:08 | 2.26146 | 101.94461 | 21658 ft | 339 kts | 42° |
| 2026-04-22 05:08 | 2.27924 | 101.96036 | 21290 ft | 336 kts | 42° |
| 2026-04-22 05:08 | 2.29679 | 101.97590 | 20909 ft | 335 kts | 41° |
| 2026-04-22 05:09 | 2.31402 | 101.99115 | 20559 ft | 332 kts | 41° |
| 2026-04-22 05:09 | 2.33132 | 102.00648 | 20183 ft | 331 kts | 41° |
| 2026-04-22 05:09 | 2.34846 | 102.02166 | 19956 ft | 323 kts | 41° |
| 2026-04-22 05:09 | 2.36494 | 102.03625 | 19947 ft | 309 kts | 41° |
| 2026-04-22 05:10 | 2.37995 | 102.05096 | 19919 ft | 295 kts | 55° |
| 2026-04-22 05:10 | 2.38868 | 102.06907 | 19651 ft | 293 kts | 77° |
| 2026-04-22 05:10 | 2.38956 | 102.08929 | 19214 ft | 292 kts | 99° |
| 2026-04-22 05:10 | 2.38234 | 102.10795 | 18727 ft | 288 kts | 122° |
| 2026-04-22 05:11 | 2.36846 | 102.12198 | 18241 ft | 285 kts | 146° |
| 2026-04-22 05:11 | 2.35016 | 102.12942 | 17764 ft | 285 kts | 169° |
| 2026-04-22 05:11 | 2.33048 | 102.12906 | 17269 ft | 286 kts | 193° |
| 2026-04-22 05:11 | 2.31236 | 102.12090 | 16772 ft | 284 kts | 217° |
| 2026-04-22 05:12 | 2.29763 | 102.10793 | 16309 ft | 280 kts | 224° |
| 2026-04-22 05:12 | 2.28353 | 102.09476 | 15851 ft | 277 kts | 224° |
| 2026-04-22 05:12 | 2.26932 | 102.08184 | 15373 ft | 273 kts | 223° |
| 2026-04-22 05:12 | 2.25531 | 102.06931 | 14922 ft | 270 kts | 223° |
| 2026-04-22 05:13 | 2.24195 | 102.05618 | 14454 ft | 266 kts | 234° |
| 2026-04-22 05:13 | 2.23376 | 102.03999 | 13966 ft | 263 kts | 255° |
| 2026-04-22 05:13 | 2.23205 | 102.02196 | 13495 ft | 259 kts | 276° |
| 2026-04-22 05:13 | 2.23691 | 102.00481 | 13000 ft | 256 kts | 296° |
| 2026-04-22 05:14 | 2.24739 | 101.99072 | 12521 ft | 253 kts | 316° |
| 2026-04-22 05:14 | 2.26212 | 101.98124 | 12041 ft | 252 kts | 336° |
| 2026-04-22 05:14 | 2.27912 | 101.97752 | 11529 ft | 251 kts | 357° |
| 2026-04-22 05:14 | 2.29630 | 101.97992 | 11064 ft | 251 kts | 17° |
| 2026-04-22 05:15 | 2.31154 | 101.98811 | 10578 ft | 251 kts | 37° |
| 2026-04-22 05:15 | 2.32464 | 101.99981 | 10089 ft | 249 kts | 41° |
| 2026-04-22 05:15 | 2.33730 | 102.01140 | 9628 ft | 248 kts | 41° |
| 2026-04-22 05:15 | 2.35015 | 102.02297 | 9149 ft | 246 kts | 41° |
| 2026-04-22 05:16 | 2.36308 | 102.03413 | 8670 ft | 244 kts | 33° |
| 2026-04-22 05:16 | 2.37853 | 102.04005 | 8185 ft | 241 kts | 6° |
| 2026-04-22 05:16 | 2.39507 | 102.03783 | 7672 ft | 240 kts | 338° |
| 2026-04-22 05:16 | 2.40843 | 102.02786 | 7266 ft | 248 kts | 309° |
| 2026-04-22 05:17 | 2.41785 | 102.01303 | 6965 ft | 253 kts | 301° |
| 2026-04-22 05:17 | 2.42640 | 101.99816 | 6795 ft | 239 kts | 301° |
| 2026-04-22 05:17 | 2.43434 | 101.98425 | 6724 ft | 220 kts | 301° |
| 2026-04-22 05:17 | 2.44167 | 101.97143 | 6670 ft | 203 kts | 301° |
| 2026-04-22 05:18 | 2.45515 | 101.94786 | 6527 ft | 191 kts | 301° |
| 2026-04-22 05:18 | 2.46179 | 101.93626 | 6448 ft | 191 kts | 301° |
| 2026-04-22 05:18 | 2.46834 | 101.92482 | 6373 ft | 191 kts | 301° |
| 2026-04-22 05:19 | 2.47499 | 101.91322 | 6296 ft | 190 kts | 301° |
| 2026-04-22 05:19 | 2.48199 | 101.90209 | 6215 ft | 189 kts | 314° |
| 2026-04-22 05:19 | 2.49226 | 101.89346 | 6047 ft | 192 kts | 323° |
| 2026-04-22 05:19 | 2.50292 | 101.88548 | 5792 ft | 190 kts | 325° |
| 2026-04-22 05:20 | 2.51363 | 101.87798 | 5541 ft | 187 kts | 327° |
| 2026-04-22 05:20 | 2.52449 | 101.87065 | 5293 ft | 185 kts | 327° |
| 2026-04-22 05:20 | 2.53518 | 101.86359 | 5051 ft | 185 kts | 328° |
| 2026-04-22 05:20 | 2.54605 | 101.85644 | 4798 ft | 185 kts | 328° |
| 2026-04-22 05:21 | 2.55682 | 101.84935 | 4541 ft | 184 kts | 328° |
| 2026-04-22 05:21 | 2.56745 | 101.84233 | 4291 ft | 182 kts | 328° |
| 2026-04-22 05:21 | 2.57804 | 101.83532 | 4043 ft | 182 kts | 328° |
| 2026-04-22 05:21 | 2.58875 | 101.82820 | 3785 ft | 183 kts | 328° |
| 2026-04-22 05:22 | 2.59928 | 101.82118 | 3521 ft | 181 kts | 328° |
| 2026-04-22 05:22 | 2.60979 | 101.81419 | 3257 ft | 181 kts | 328° |
| 2026-04-22 05:22 | 2.62033 | 101.80718 | 2995 ft | 182 kts | 327° |
| 2026-04-22 05:22 | 2.63074 | 101.80022 | 2736 ft | 173 kts | 328° |
| 2026-04-22 05:23 | 2.64048 | 101.79375 | 2510 ft | 160 kts | 328° |
| 2026-04-22 05:23 | 2.64940 | 101.78782 | 2289 ft | 149 kts | 328° |
| 2026-04-22 05:23 | 2.65812 | 101.78202 | 2079 ft | 148 kts | 328° |
| 2026-04-22 05:23 | 2.66671 | 101.77630 | 1870 ft | 147 kts | 328° |
| 2026-04-22 05:24 | 2.67519 | 101.77063 | 1678 ft | 146 kts | 328° |
| 2026-04-22 05:24 | 2.68375 | 101.76494 | 1477 ft | 146 kts | 328° |
| 2026-04-22 05:24 | 2.69219 | 101.75931 | 1286 ft | 145 kts | 328° |
| 2026-04-22 05:24 | 2.70056 | 101.75373 | 1090 ft | 145 kts | 328° |
| 2026-04-22 05:25 | 2.70905 | 101.74807 | 909 ft | 145 kts | 328° |
| 2026-04-22 05:25 | 2.71742 | 101.74247 | 733 ft | 144 kts | 327° |
| 2026-04-22 05:25 | 2.72589 | 101.73692 | 551 ft | 145 kts | 327° |
| 2026-04-22 05:25 | 2.73431 | 101.73131 | 378 ft | 144 kts | 326° |
| 2026-04-22 05:26 | 2.74276 | 101.72578 | 228 ft | 145 kts | 326° |
| 2026-04-22 05:26 | 2.75103 | 101.72024 | 96 ft | 144 kts | 327° |
| 2026-04-22 05:26 | 2.75870 | 101.71516 | 81 ft | 109 kts | 326° |
| 2026-04-22 05:26 | 2.76365 | 101.71184 | 81 ft | 64 kts | 327° |
| 2026-04-22 05:27 | 2.76667 | 101.70982 | 81 ft | 38 kts | 325° |
| 2026-04-22 05:27 | 2.76836 | 101.70836 | 81 ft | 30 kts | 303° |
| 2026-04-22 05:27 | 2.76893 | 101.70737 | 81 ft | 8 kts | 297° |
| 2026-04-22 05:27 | 2.76917 | 101.70683 | 81 ft | 8 kts | 285° |
| 2026-04-22 05:28 | 2.76905 | 101.70630 | 81 ft | 7 kts | 224° |
| 2026-04-22 05:28 | 2.76854 | 101.70627 | 81 ft | 8 kts | 151° |
| 2026-04-22 05:28 | 2.76791 | 101.70667 | 81 ft | 15 kts | 147° |
| 2026-04-22 05:28 | 2.76678 | 101.70743 | 81 ft | 24 kts | 148° |
| 2026-04-22 05:29 | 2.76517 | 101.70850 | 81 ft | 28 kts | 146° |
| 2026-04-22 05:29 | 2.76358 | 101.70956 | 81 ft | 26 kts | 146° |
| 2026-04-22 05:29 | 2.76207 | 101.71056 | 81 ft | 25 kts | 146° |
| 2026-04-22 05:29 | 2.76068 | 101.71151 | 81 ft | 23 kts | 146° |
| 2026-04-22 05:30 | 2.75922 | 101.71246 | 81 ft | 26 kts | 147° |
| 2026-04-22 05:30 | 2.75759 | 101.71355 | 81 ft | 28 kts | 146° |
| 2026-04-22 05:30 | 2.75598 | 101.71465 | 81 ft | 27 kts | 145° |
| 2026-04-22 05:30 | 2.75444 | 101.71568 | 81 ft | 25 kts | 148° |
| 2026-04-22 05:31 | 2.75307 | 101.71659 | 81 ft | 20 kts | 146° |
| 2026-04-22 05:31 | 2.75217 | 101.71691 | 81 ft | 13 kts | 206° |
| 2026-04-22 05:31 | 2.75160 | 101.71622 | 81 ft | 12 kts | 239° |
| 2026-04-22 05:31 | 2.75111 | 101.71547 | 81 ft | 12 kts | 237° |
| 2026-04-22 05:32 | 2.75064 | 101.71474 | 81 ft | 12 kts | 236° |
| 2026-04-22 05:32 | 2.75034 | 101.71404 | 81 ft | 9 kts | 278° |
| 2026-04-22 05:32 | 2.75048 | 101.71350 | 81 ft | 6 kts | 272° |
| 2026-04-22 05:32 | 2.75042 | 101.71328 | 81 ft | 2 kts | 238° |
| 2026-04-22 05:33 | 2.75033 | 101.71314 | 81 ft | 2 kts | 235° |
| 2026-04-22 05:33 | 2.75026 | 101.71305 | 81 ft | 1 kts | 235° |
| 2026-04-22 05:33 | 2.75024 | 101.71301 | 81 ft | 0 kts | 235° |